<?xml version="1.0" encoding="UTF-8" standalone="no" ?>
<gpx xmlns="http://www.topografix.com/GPX/1/1" xmlns:xsi="http://www.w3.org/2001/XMLSchema-instance" xsi:schemaLocation="http://www.topografix.com/GPX/1/1 http://www.topografix.com/GPX/1/1/gpx.xsd" version="1.1" creator="VisuGPX - https://www.visugpx.com">
  <metadata>
    <name>Marche nordique à Villers</name>
    <desc><![CDATA[Après midi du séjour RCY aux alentours de Cabourg]]></desc>
  </metadata>
  <trk>
    <name><![CDATA[SityTrail - mn villers]]></name>
    <trkseg>
      <trkpt lat="49.32418" lon="-0.00181">
        <ele>5</ele>
        <time>2021-10-17T12:39:03.772Z</time>
      </trkpt>
      <trkpt lat="49.3242" lon="-0.0018">
        <ele>5</ele>
        <time>2021-10-17T12:43:31.498Z</time>
      </trkpt>
      <trkpt lat="49.32417" lon="-0.00174">
        <ele>5</ele>
        <time>2021-10-17T12:43:35.490Z</time>
      </trkpt>
      <trkpt lat="49.32416" lon="-0.00166">
        <ele>5</ele>
        <time>2021-10-17T12:43:40.481Z</time>
      </trkpt>
      <trkpt lat="49.32417" lon="-0.00159">
        <ele>5</ele>
        <time>2021-10-17T12:43:45.486Z</time>
      </trkpt>
      <trkpt lat="49.32421" lon="-0.00155">
        <ele>5</ele>
        <time>2021-10-17T12:43:50.484Z</time>
      </trkpt>
      <trkpt lat="49.3242" lon="-0.00153">
        <ele>4</ele>
        <time>2021-10-17T12:43:55.479Z</time>
      </trkpt>
      <trkpt lat="49.32419" lon="-0.00145">
        <ele>4</ele>
        <time>2021-10-17T12:44:00.482Z</time>
      </trkpt>
      <trkpt lat="49.3242" lon="-0.00139">
        <ele>4</ele>
        <time>2021-10-17T12:44:05.482Z</time>
      </trkpt>
      <trkpt lat="49.32422" lon="-0.00136">
        <ele>4</ele>
        <time>2021-10-17T12:44:10.477Z</time>
      </trkpt>
      <trkpt lat="49.32423" lon="-0.00132">
        <ele>4</ele>
        <time>2021-10-17T12:44:52.496Z</time>
      </trkpt>
      <trkpt lat="49.32423" lon="-0.00127">
        <ele>4</ele>
        <time>2021-10-17T12:44:57.491Z</time>
      </trkpt>
      <trkpt lat="49.32424" lon="-0.00124">
        <ele>4</ele>
        <time>2021-10-17T12:45:02.488Z</time>
      </trkpt>
      <trkpt lat="49.32426" lon="-0.00121">
        <ele>4</ele>
        <time>2021-10-17T12:45:06.486Z</time>
      </trkpt>
      <trkpt lat="49.32429" lon="-0.00117">
        <ele>4</ele>
        <time>2021-10-17T12:45:10.498Z</time>
      </trkpt>
      <trkpt lat="49.32431" lon="-0.00112">
        <ele>5</ele>
        <time>2021-10-17T12:45:15.490Z</time>
      </trkpt>
      <trkpt lat="49.32434" lon="-0.00108">
        <ele>5</ele>
        <time>2021-10-17T12:45:20.493Z</time>
      </trkpt>
      <trkpt lat="49.32437" lon="-0.00105">
        <ele>5</ele>
        <time>2021-10-17T12:45:24.505Z</time>
      </trkpt>
      <trkpt lat="49.32441" lon="-0.00105">
        <ele>5</ele>
        <time>2021-10-17T12:45:29.488Z</time>
      </trkpt>
      <trkpt lat="49.32446" lon="-0.00105">
        <ele>5</ele>
        <time>2021-10-17T12:45:34.495Z</time>
      </trkpt>
      <trkpt lat="49.32452" lon="-0.00106">
        <ele>5</ele>
        <time>2021-10-17T12:45:39.483Z</time>
      </trkpt>
      <trkpt lat="49.32458" lon="-0.00112">
        <ele>5</ele>
        <time>2021-10-17T12:45:44.481Z</time>
      </trkpt>
      <trkpt lat="49.32461" lon="-0.00115">
        <ele>7</ele>
        <time>2021-10-17T12:45:48.494Z</time>
      </trkpt>
      <trkpt lat="49.32465" lon="-0.00118">
        <ele>7</ele>
        <time>2021-10-17T12:45:52.493Z</time>
      </trkpt>
      <trkpt lat="49.32469" lon="-0.00121">
        <ele>7</ele>
        <time>2021-10-17T12:45:57.487Z</time>
      </trkpt>
      <trkpt lat="49.32473" lon="-0.00123">
        <ele>7</ele>
        <time>2021-10-17T12:46:01.501Z</time>
      </trkpt>
      <trkpt lat="49.32478" lon="-0.00126">
        <ele>7</ele>
        <time>2021-10-17T12:46:06.488Z</time>
      </trkpt>
      <trkpt lat="49.32484" lon="-0.00131">
        <ele>7</ele>
        <time>2021-10-17T12:46:11.506Z</time>
      </trkpt>
      <trkpt lat="49.32489" lon="-0.00131">
        <ele>8</ele>
        <time>2021-10-17T12:46:16.483Z</time>
      </trkpt>
      <trkpt lat="49.32494" lon="-0.00131">
        <ele>8</ele>
        <time>2021-10-17T12:46:20.495Z</time>
      </trkpt>
      <trkpt lat="49.32501" lon="-0.00134">
        <ele>8</ele>
        <time>2021-10-17T12:46:25.483Z</time>
      </trkpt>
      <trkpt lat="49.32506" lon="-0.00137">
        <ele>8</ele>
        <time>2021-10-17T12:46:29.486Z</time>
      </trkpt>
      <trkpt lat="49.32507" lon="-0.00141">
        <ele>8</ele>
        <time>2021-10-17T12:46:33.479Z</time>
      </trkpt>
      <trkpt lat="49.32508" lon="-0.00148">
        <ele>8</ele>
        <time>2021-10-17T12:46:38.487Z</time>
      </trkpt>
      <trkpt lat="49.32507" lon="-0.00154">
        <ele>7</ele>
        <time>2021-10-17T12:46:42.485Z</time>
      </trkpt>
      <trkpt lat="49.32505" lon="-0.00162">
        <ele>7</ele>
        <time>2021-10-17T12:46:47.479Z</time>
      </trkpt>
      <trkpt lat="49.32504" lon="-0.00168">
        <ele>7</ele>
        <time>2021-10-17T12:46:51.482Z</time>
      </trkpt>
      <trkpt lat="49.32506" lon="-0.00176">
        <ele>7</ele>
        <time>2021-10-17T12:46:56.483Z</time>
      </trkpt>
      <trkpt lat="49.32508" lon="-0.00183">
        <ele>6</ele>
        <time>2021-10-17T12:47:01.488Z</time>
      </trkpt>
      <trkpt lat="49.3251" lon="-0.00189">
        <ele>6</ele>
        <time>2021-10-17T12:47:06.485Z</time>
      </trkpt>
      <trkpt lat="49.32512" lon="-0.0019">
        <ele>6</ele>
        <time>2021-10-17T12:47:11.479Z</time>
      </trkpt>
      <trkpt lat="49.32514" lon="-0.0019">
        <ele>5</ele>
        <time>2021-10-17T12:47:15.489Z</time>
      </trkpt>
      <trkpt lat="49.32516" lon="-0.00186">
        <ele>5</ele>
        <time>2021-10-17T12:47:19.498Z</time>
      </trkpt>
      <trkpt lat="49.32518" lon="-0.00181">
        <ele>5</ele>
        <time>2021-10-17T12:47:24.487Z</time>
      </trkpt>
      <trkpt lat="49.32527" lon="-0.00184">
        <ele>5</ele>
        <time>2021-10-17T12:47:42.507Z</time>
      </trkpt>
      <trkpt lat="49.32528" lon="-0.00184">
        <ele>5</ele>
        <time>2021-10-17T12:47:47.481Z</time>
      </trkpt>
      <trkpt lat="49.3253" lon="-0.00187">
        <ele>5</ele>
        <time>2021-10-17T12:47:51.483Z</time>
      </trkpt>
      <trkpt lat="49.32532" lon="-0.00187">
        <ele>5</ele>
        <time>2021-10-17T12:47:56.499Z</time>
      </trkpt>
      <trkpt lat="49.32535" lon="-0.00189">
        <ele>5</ele>
        <time>2021-10-17T12:48:01.484Z</time>
      </trkpt>
      <trkpt lat="49.32538" lon="-0.00191">
        <ele>5</ele>
        <time>2021-10-17T12:48:05.485Z</time>
      </trkpt>
      <trkpt lat="49.32542" lon="-0.00195">
        <ele>5</ele>
        <time>2021-10-17T12:48:10.484Z</time>
      </trkpt>
      <trkpt lat="49.32545" lon="-0.00198">
        <ele>3.7</ele>
        <time>2021-10-17T12:48:15.477Z</time>
      </trkpt>
      <trkpt lat="49.32548" lon="-0.00202">
        <ele>3.4</ele>
        <time>2021-10-17T12:48:19.491Z</time>
      </trkpt>
      <trkpt lat="49.32552" lon="-0.00207">
        <ele>3.2</ele>
        <time>2021-10-17T12:48:23.488Z</time>
      </trkpt>
      <trkpt lat="49.32556" lon="-0.00213">
        <ele>3</ele>
        <time>2021-10-17T12:48:28.490Z</time>
      </trkpt>
      <trkpt lat="49.32561" lon="-0.00216">
        <ele>2.8</ele>
        <time>2021-10-17T12:48:33.479Z</time>
      </trkpt>
      <trkpt lat="49.32564" lon="-0.00222">
        <ele>2.7</ele>
        <time>2021-10-17T12:48:38.489Z</time>
      </trkpt>
      <trkpt lat="49.32567" lon="-0.00225">
        <ele>2.5</ele>
        <time>2021-10-17T12:48:42.479Z</time>
      </trkpt>
      <trkpt lat="49.32567" lon="-0.0023">
        <ele>2.3</ele>
        <time>2021-10-17T12:48:47.479Z</time>
      </trkpt>
      <trkpt lat="49.32568" lon="-0.00233">
        <ele>2.1</ele>
        <time>2021-10-17T12:48:51.487Z</time>
      </trkpt>
      <trkpt lat="49.32573" lon="-0.00236">
        <ele>1.9</ele>
        <time>2021-10-17T12:48:56.479Z</time>
      </trkpt>
      <trkpt lat="49.32576" lon="-0.0024">
        <ele>1.6</ele>
        <time>2021-10-17T12:49:00.480Z</time>
      </trkpt>
      <trkpt lat="49.3258" lon="-0.00245">
        <ele>1.3</ele>
        <time>2021-10-17T12:49:05.481Z</time>
      </trkpt>
      <trkpt lat="49.32582" lon="-0.00249">
        <ele>1.1</ele>
        <time>2021-10-17T12:49:09.496Z</time>
      </trkpt>
      <trkpt lat="49.32584" lon="-0.00254">
        <ele>1</ele>
        <time>2021-10-17T12:49:14.482Z</time>
      </trkpt>
      <trkpt lat="49.32585" lon="-0.00253">
        <ele>1</ele>
        <time>2021-10-17T12:49:23.485Z</time>
      </trkpt>
      <trkpt lat="49.32585" lon="-0.00255">
        <ele>1</ele>
        <time>2021-10-17T12:49:28.486Z</time>
      </trkpt>
      <trkpt lat="49.32587" lon="-0.00259">
        <ele>1</ele>
        <time>2021-10-17T12:49:32.487Z</time>
      </trkpt>
      <trkpt lat="49.3259" lon="-0.00262">
        <ele>1</ele>
        <time>2021-10-17T12:49:36.503Z</time>
      </trkpt>
      <trkpt lat="49.32593" lon="-0.00266">
        <ele>1</ele>
        <time>2021-10-17T12:49:40.488Z</time>
      </trkpt>
      <trkpt lat="49.32598" lon="-0.00268">
        <ele>1</ele>
        <time>2021-10-17T12:49:45.575Z</time>
      </trkpt>
      <trkpt lat="49.32602" lon="-0.00275">
        <ele>1</ele>
        <time>2021-10-17T12:49:50.486Z</time>
      </trkpt>
      <trkpt lat="49.32605" lon="-0.0028">
        <ele>1</ele>
        <time>2021-10-17T12:49:55.481Z</time>
      </trkpt>
      <trkpt lat="49.32607" lon="-0.00281">
        <ele>1</ele>
        <time>2021-10-17T12:49:59.500Z</time>
      </trkpt>
      <trkpt lat="49.32611" lon="-0.00284">
        <ele>1</ele>
        <time>2021-10-17T12:50:04.485Z</time>
      </trkpt>
      <trkpt lat="49.32613" lon="-0.00287">
        <ele>1</ele>
        <time>2021-10-17T12:50:08.493Z</time>
      </trkpt>
      <trkpt lat="49.32617" lon="-0.00292">
        <ele>1</ele>
        <time>2021-10-17T12:50:13.487Z</time>
      </trkpt>
      <trkpt lat="49.32621" lon="-0.00297">
        <ele>1</ele>
        <time>2021-10-17T12:50:18.476Z</time>
      </trkpt>
      <trkpt lat="49.32625" lon="-0.00301">
        <ele>1</ele>
        <time>2021-10-17T12:50:22.481Z</time>
      </trkpt>
      <trkpt lat="49.3263" lon="-0.00303">
        <ele>1</ele>
        <time>2021-10-17T12:50:27.496Z</time>
      </trkpt>
      <trkpt lat="49.3263" lon="-0.00302">
        <ele>1</ele>
        <time>2021-10-17T12:50:32.479Z</time>
      </trkpt>
      <trkpt lat="49.32631" lon="-0.00305">
        <ele>1</ele>
        <time>2021-10-17T12:50:37.488Z</time>
      </trkpt>
      <trkpt lat="49.32632" lon="-0.00309">
        <ele>1</ele>
        <time>2021-10-17T12:50:42.480Z</time>
      </trkpt>
      <trkpt lat="49.3263" lon="-0.00316">
        <ele>1</ele>
        <time>2021-10-17T12:54:18.488Z</time>
      </trkpt>
      <trkpt lat="49.3263" lon="-0.00316">
        <ele>1</ele>
        <time>2021-10-17T12:54:22.494Z</time>
      </trkpt>
      <trkpt lat="49.32629" lon="-0.00318">
        <ele>1</ele>
        <time>2021-10-17T12:54:27.479Z</time>
      </trkpt>
      <trkpt lat="49.32627" lon="-0.00321">
        <ele>1</ele>
        <time>2021-10-17T12:54:31.487Z</time>
      </trkpt>
      <trkpt lat="49.32627" lon="-0.00322">
        <ele>1</ele>
        <time>2021-10-17T12:54:35.487Z</time>
      </trkpt>
      <trkpt lat="49.32627" lon="-0.00323">
        <ele>1</ele>
        <time>2021-10-17T12:54:48.478Z</time>
      </trkpt>
      <trkpt lat="49.32627" lon="-0.00323">
        <ele>1</ele>
        <time>2021-10-17T12:54:53.486Z</time>
      </trkpt>
      <trkpt lat="49.32626" lon="-0.00326">
        <ele>1</ele>
        <time>2021-10-17T12:54:58.488Z</time>
      </trkpt>
      <trkpt lat="49.32624" lon="-0.00335">
        <time>2021-10-17T12:55:03.491Z</time>
      </trkpt>
      <trkpt lat="49.32621" lon="-0.00344">
        <time>2021-10-17T12:55:08.490Z</time>
      </trkpt>
      <trkpt lat="49.32618" lon="-0.00353">
        <time>2021-10-17T12:55:13.497Z</time>
      </trkpt>
      <trkpt lat="49.32617" lon="-0.00364">
        <time>2021-10-17T12:55:18.485Z</time>
      </trkpt>
      <trkpt lat="49.32613" lon="-0.00374">
        <time>2021-10-17T12:55:23.487Z</time>
      </trkpt>
      <trkpt lat="49.3261" lon="-0.00385">
        <ele>1</ele>
        <time>2021-10-17T12:55:28.483Z</time>
      </trkpt>
      <trkpt lat="49.32607" lon="-0.00395">
        <ele>1</ele>
        <time>2021-10-17T12:55:33.492Z</time>
      </trkpt>
      <trkpt lat="49.32605" lon="-0.00406">
        <ele>1</ele>
        <time>2021-10-17T12:55:38.485Z</time>
      </trkpt>
      <trkpt lat="49.32603" lon="-0.00414">
        <ele>1</ele>
        <time>2021-10-17T12:55:42.484Z</time>
      </trkpt>
      <trkpt lat="49.32601" lon="-0.00424">
        <time>2021-10-17T12:55:47.485Z</time>
      </trkpt>
      <trkpt lat="49.32599" lon="-0.00432">
        <time>2021-10-17T12:55:51.487Z</time>
      </trkpt>
      <trkpt lat="49.32597" lon="-0.00442">
        <time>2021-10-17T12:55:56.585Z</time>
      </trkpt>
      <trkpt lat="49.32593" lon="-0.00452">
        <time>2021-10-17T12:56:01.472Z</time>
      </trkpt>
      <trkpt lat="49.32591" lon="-0.00459">
        <time>2021-10-17T12:56:05.492Z</time>
      </trkpt>
      <trkpt lat="49.32587" lon="-0.00469">
        <time>2021-10-17T12:56:10.499Z</time>
      </trkpt>
      <trkpt lat="49.32585" lon="-0.0048">
        <time>2021-10-17T12:56:15.495Z</time>
      </trkpt>
      <trkpt lat="49.32582" lon="-0.00488">
        <ele>1</ele>
        <time>2021-10-17T12:56:19.493Z</time>
      </trkpt>
      <trkpt lat="49.32579" lon="-0.00498">
        <ele>1</ele>
        <time>2021-10-17T12:56:24.489Z</time>
      </trkpt>
      <trkpt lat="49.32577" lon="-0.00509">
        <time>2021-10-17T12:56:29.494Z</time>
      </trkpt>
      <trkpt lat="49.32574" lon="-0.0052">
        <time>2021-10-17T12:56:34.491Z</time>
      </trkpt>
      <trkpt lat="49.32572" lon="-0.0053">
        <time>2021-10-17T12:56:39.488Z</time>
      </trkpt>
      <trkpt lat="49.32571" lon="-0.00538">
        <time>2021-10-17T12:56:43.500Z</time>
      </trkpt>
      <trkpt lat="49.32569" lon="-0.00548">
        <time>2021-10-17T12:56:48.479Z</time>
      </trkpt>
      <trkpt lat="49.32566" lon="-0.00557">
        <time>2021-10-17T12:56:52.491Z</time>
      </trkpt>
      <trkpt lat="49.32564" lon="-0.00566">
        <time>2021-10-17T12:56:57.482Z</time>
      </trkpt>
      <trkpt lat="49.32562" lon="-0.00573">
        <time>2021-10-17T12:57:01.485Z</time>
      </trkpt>
      <trkpt lat="49.32559" lon="-0.00584">
        <time>2021-10-17T12:57:06.479Z</time>
      </trkpt>
      <trkpt lat="49.32557" lon="-0.00596">
        <time>2021-10-17T12:57:11.491Z</time>
      </trkpt>
      <trkpt lat="49.32554" lon="-0.00606">
        <time>2021-10-17T12:57:16.479Z</time>
      </trkpt>
      <trkpt lat="49.32552" lon="-0.00615">
        <time>2021-10-17T12:57:20.483Z</time>
      </trkpt>
      <trkpt lat="49.3255" lon="-0.00625">
        <time>2021-10-17T12:57:25.485Z</time>
      </trkpt>
      <trkpt lat="49.32547" lon="-0.00634">
        <time>2021-10-17T12:57:30.489Z</time>
      </trkpt>
      <trkpt lat="49.3255" lon="-0.00641">
        <time>2021-10-17T12:57:35.483Z</time>
      </trkpt>
      <trkpt lat="49.32553" lon="-0.0065">
        <time>2021-10-17T12:57:40.479Z</time>
      </trkpt>
      <trkpt lat="49.32553" lon="-0.00658">
        <time>2021-10-17T12:57:44.485Z</time>
      </trkpt>
      <trkpt lat="49.32552" lon="-0.00669">
        <time>2021-10-17T12:57:49.497Z</time>
      </trkpt>
      <trkpt lat="49.3255" lon="-0.0068">
        <time>2021-10-17T12:57:54.490Z</time>
      </trkpt>
      <trkpt lat="49.32547" lon="-0.0069">
        <time>2021-10-17T12:57:59.480Z</time>
      </trkpt>
      <trkpt lat="49.32546" lon="-0.00701">
        <time>2021-10-17T12:58:04.489Z</time>
      </trkpt>
      <trkpt lat="49.32545" lon="-0.00709">
        <time>2021-10-17T12:58:08.487Z</time>
      </trkpt>
      <trkpt lat="49.32543" lon="-0.0072">
        <time>2021-10-17T12:58:13.477Z</time>
      </trkpt>
      <trkpt lat="49.32542" lon="-0.00728">
        <time>2021-10-17T12:58:17.487Z</time>
      </trkpt>
      <trkpt lat="49.3254" lon="-0.00739">
        <time>2021-10-17T12:58:22.492Z</time>
      </trkpt>
      <trkpt lat="49.3254" lon="-0.00749">
        <time>2021-10-17T12:58:27.480Z</time>
      </trkpt>
      <trkpt lat="49.32541" lon="-0.00757">
        <time>2021-10-17T12:58:32.481Z</time>
      </trkpt>
      <trkpt lat="49.32541" lon="-0.00768">
        <time>2021-10-17T12:58:37.495Z</time>
      </trkpt>
      <trkpt lat="49.3254" lon="-0.00779">
        <time>2021-10-17T12:58:42.481Z</time>
      </trkpt>
      <trkpt lat="49.32538" lon="-0.00789">
        <time>2021-10-17T12:58:47.480Z</time>
      </trkpt>
      <trkpt lat="49.32536" lon="-0.00798">
        <time>2021-10-17T12:58:51.493Z</time>
      </trkpt>
      <trkpt lat="49.32533" lon="-0.00808">
        <time>2021-10-17T12:58:56.484Z</time>
      </trkpt>
      <trkpt lat="49.3253" lon="-0.00817">
        <time>2021-10-17T12:59:00.486Z</time>
      </trkpt>
      <trkpt lat="49.32527" lon="-0.00828">
        <time>2021-10-17T12:59:05.481Z</time>
      </trkpt>
      <trkpt lat="49.32524" lon="-0.00838">
        <time>2021-10-17T12:59:10.486Z</time>
      </trkpt>
      <trkpt lat="49.3252" lon="-0.00848">
        <time>2021-10-17T12:59:15.483Z</time>
      </trkpt>
      <trkpt lat="49.32516" lon="-0.00857">
        <time>2021-10-17T12:59:20.483Z</time>
      </trkpt>
      <trkpt lat="49.32513" lon="-0.00865">
        <time>2021-10-17T12:59:24.505Z</time>
      </trkpt>
      <trkpt lat="49.32509" lon="-0.00874">
        <time>2021-10-17T12:59:29.481Z</time>
      </trkpt>
      <trkpt lat="49.32504" lon="-0.00883">
        <time>2021-10-17T12:59:34.479Z</time>
      </trkpt>
      <trkpt lat="49.32501" lon="-0.0089">
        <time>2021-10-17T12:59:38.489Z</time>
      </trkpt>
      <trkpt lat="49.32497" lon="-0.009">
        <time>2021-10-17T12:59:43.482Z</time>
      </trkpt>
      <trkpt lat="49.32493" lon="-0.0091">
        <time>2021-10-17T12:59:48.476Z</time>
      </trkpt>
      <trkpt lat="49.3249" lon="-0.00919">
        <time>2021-10-17T12:59:52.483Z</time>
      </trkpt>
      <trkpt lat="49.32486" lon="-0.0093">
        <time>2021-10-17T12:59:57.481Z</time>
      </trkpt>
      <trkpt lat="49.32482" lon="-0.00939">
        <time>2021-10-17T13:00:02.497Z</time>
      </trkpt>
      <trkpt lat="49.32478" lon="-0.00949">
        <time>2021-10-17T13:00:07.482Z</time>
      </trkpt>
      <trkpt lat="49.32475" lon="-0.00957">
        <time>2021-10-17T13:00:11.489Z</time>
      </trkpt>
      <trkpt lat="49.32471" lon="-0.00966">
        <time>2021-10-17T13:00:16.488Z</time>
      </trkpt>
      <trkpt lat="49.32466" lon="-0.00975">
        <time>2021-10-17T13:00:21.483Z</time>
      </trkpt>
      <trkpt lat="49.32463" lon="-0.00985">
        <time>2021-10-17T13:00:26.483Z</time>
      </trkpt>
      <trkpt lat="49.32458" lon="-0.00993">
        <time>2021-10-17T13:00:31.482Z</time>
      </trkpt>
      <trkpt lat="49.32454" lon="-0.00996">
        <time>2021-10-17T13:00:36.477Z</time>
      </trkpt>
      <trkpt lat="49.32454" lon="-0.00996">
        <time>2021-10-17T13:00:41.481Z</time>
      </trkpt>
      <trkpt lat="49.32451" lon="-0.01003">
        <time>2021-10-17T13:00:45.482Z</time>
      </trkpt>
      <trkpt lat="49.32446" lon="-0.01013">
        <time>2021-10-17T13:00:50.609Z</time>
      </trkpt>
      <trkpt lat="49.32441" lon="-0.01024">
        <time>2021-10-17T13:00:55.486Z</time>
      </trkpt>
      <trkpt lat="49.32436" lon="-0.01036">
        <time>2021-10-17T13:01:00.471Z</time>
      </trkpt>
      <trkpt lat="49.3243" lon="-0.01046">
        <time>2021-10-17T13:01:05.477Z</time>
      </trkpt>
      <trkpt lat="49.32427" lon="-0.01056">
        <time>2021-10-17T13:01:09.504Z</time>
      </trkpt>
      <trkpt lat="49.32421" lon="-0.01067">
        <time>2021-10-17T13:01:14.477Z</time>
      </trkpt>
      <trkpt lat="49.32418" lon="-0.01075">
        <time>2021-10-17T13:01:18.503Z</time>
      </trkpt>
      <trkpt lat="49.32413" lon="-0.01086">
        <time>2021-10-17T13:01:23.484Z</time>
      </trkpt>
      <trkpt lat="49.3241" lon="-0.01097">
        <time>2021-10-17T13:01:28.485Z</time>
      </trkpt>
      <trkpt lat="49.32408" lon="-0.01106">
        <time>2021-10-17T13:01:32.479Z</time>
      </trkpt>
      <trkpt lat="49.32406" lon="-0.01117">
        <time>2021-10-17T13:01:37.486Z</time>
      </trkpt>
      <trkpt lat="49.32403" lon="-0.01128">
        <time>2021-10-17T13:01:42.482Z</time>
      </trkpt>
      <trkpt lat="49.324" lon="-0.0114">
        <time>2021-10-17T13:01:47.487Z</time>
      </trkpt>
      <trkpt lat="49.32399" lon="-0.01149">
        <time>2021-10-17T13:01:51.489Z</time>
      </trkpt>
      <trkpt lat="49.32397" lon="-0.01161">
        <time>2021-10-17T13:01:56.485Z</time>
      </trkpt>
      <trkpt lat="49.32394" lon="-0.01172">
        <time>2021-10-17T13:02:01.483Z</time>
      </trkpt>
      <trkpt lat="49.3239" lon="-0.01183">
        <time>2021-10-17T13:02:06.482Z</time>
      </trkpt>
      <trkpt lat="49.32387" lon="-0.01192">
        <time>2021-10-17T13:02:10.491Z</time>
      </trkpt>
      <trkpt lat="49.32383" lon="-0.012">
        <time>2021-10-17T13:02:14.484Z</time>
      </trkpt>
      <trkpt lat="49.3238" lon="-0.01211">
        <time>2021-10-17T13:02:19.482Z</time>
      </trkpt>
      <trkpt lat="49.32376" lon="-0.01222">
        <time>2021-10-17T13:02:24.481Z</time>
      </trkpt>
      <trkpt lat="49.32372" lon="-0.01232">
        <time>2021-10-17T13:02:29.490Z</time>
      </trkpt>
      <trkpt lat="49.32367" lon="-0.01243">
        <time>2021-10-17T13:02:34.485Z</time>
      </trkpt>
      <trkpt lat="49.32364" lon="-0.01254">
        <time>2021-10-17T13:02:39.485Z</time>
      </trkpt>
      <trkpt lat="49.32359" lon="-0.01263">
        <time>2021-10-17T13:02:44.487Z</time>
      </trkpt>
      <trkpt lat="49.32357" lon="-0.01271">
        <time>2021-10-17T13:02:48.492Z</time>
      </trkpt>
      <trkpt lat="49.32354" lon="-0.01281">
        <time>2021-10-17T13:02:53.501Z</time>
      </trkpt>
      <trkpt lat="49.32349" lon="-0.01292">
        <time>2021-10-17T13:02:58.486Z</time>
      </trkpt>
      <trkpt lat="49.32346" lon="-0.013">
        <time>2021-10-17T13:03:02.484Z</time>
      </trkpt>
      <trkpt lat="49.32342" lon="-0.01309">
        <time>2021-10-17T13:03:07.483Z</time>
      </trkpt>
      <trkpt lat="49.32338" lon="-0.0132">
        <time>2021-10-17T13:03:12.487Z</time>
      </trkpt>
      <trkpt lat="49.32335" lon="-0.01328">
        <time>2021-10-17T13:03:16.483Z</time>
      </trkpt>
      <trkpt lat="49.32332" lon="-0.01336">
        <time>2021-10-17T13:03:20.482Z</time>
      </trkpt>
      <trkpt lat="49.32328" lon="-0.01347">
        <time>2021-10-17T13:03:25.488Z</time>
      </trkpt>
      <trkpt lat="49.32325" lon="-0.01358">
        <time>2021-10-17T13:03:30.493Z</time>
      </trkpt>
      <trkpt lat="49.32324" lon="-0.01366">
        <time>2021-10-17T13:03:34.502Z</time>
      </trkpt>
      <trkpt lat="49.3232" lon="-0.01377">
        <time>2021-10-17T13:03:39.485Z</time>
      </trkpt>
      <trkpt lat="49.32317" lon="-0.01388">
        <time>2021-10-17T13:03:44.495Z</time>
      </trkpt>
      <trkpt lat="49.32313" lon="-0.01396">
        <time>2021-10-17T13:03:48.502Z</time>
      </trkpt>
      <trkpt lat="49.3231" lon="-0.01407">
        <time>2021-10-17T13:03:53.498Z</time>
      </trkpt>
      <trkpt lat="49.32306" lon="-0.01418">
        <time>2021-10-17T13:03:58.493Z</time>
      </trkpt>
      <trkpt lat="49.32303" lon="-0.01428">
        <time>2021-10-17T13:04:03.486Z</time>
      </trkpt>
      <trkpt lat="49.32299" lon="-0.01438">
        <time>2021-10-17T13:04:08.484Z</time>
      </trkpt>
      <trkpt lat="49.32296" lon="-0.01447">
        <time>2021-10-17T13:04:12.479Z</time>
      </trkpt>
      <trkpt lat="49.32292" lon="-0.01457">
        <time>2021-10-17T13:04:17.477Z</time>
      </trkpt>
      <trkpt lat="49.32289" lon="-0.01466">
        <time>2021-10-17T13:04:21.489Z</time>
      </trkpt>
      <trkpt lat="49.32286" lon="-0.01477">
        <time>2021-10-17T13:04:26.502Z</time>
      </trkpt>
      <trkpt lat="49.32282" lon="-0.01486">
        <time>2021-10-17T13:04:31.481Z</time>
      </trkpt>
      <trkpt lat="49.32279" lon="-0.01495">
        <time>2021-10-17T13:04:35.493Z</time>
      </trkpt>
      <trkpt lat="49.32275" lon="-0.01505">
        <time>2021-10-17T13:04:40.493Z</time>
      </trkpt>
      <trkpt lat="49.3227" lon="-0.01515">
        <time>2021-10-17T13:04:45.488Z</time>
      </trkpt>
      <trkpt lat="49.32267" lon="-0.01527">
        <time>2021-10-17T13:04:50.499Z</time>
      </trkpt>
      <trkpt lat="49.32263" lon="-0.01537">
        <time>2021-10-17T13:04:55.490Z</time>
      </trkpt>
      <trkpt lat="49.3226" lon="-0.01546">
        <time>2021-10-17T13:04:59.494Z</time>
      </trkpt>
      <trkpt lat="49.32256" lon="-0.01557">
        <time>2021-10-17T13:05:04.487Z</time>
      </trkpt>
      <trkpt lat="49.32252" lon="-0.01568">
        <time>2021-10-17T13:05:09.499Z</time>
      </trkpt>
      <trkpt lat="49.32248" lon="-0.01579">
        <time>2021-10-17T13:05:14.483Z</time>
      </trkpt>
      <trkpt lat="49.32244" lon="-0.01589">
        <time>2021-10-17T13:05:19.482Z</time>
      </trkpt>
      <trkpt lat="49.32241" lon="-0.016">
        <time>2021-10-17T13:05:24.486Z</time>
      </trkpt>
      <trkpt lat="49.32238" lon="-0.01609">
        <time>2021-10-17T13:05:28.497Z</time>
      </trkpt>
      <trkpt lat="49.32235" lon="-0.01618">
        <time>2021-10-17T13:05:32.495Z</time>
      </trkpt>
      <trkpt lat="49.32231" lon="-0.01628">
        <time>2021-10-17T13:05:37.491Z</time>
      </trkpt>
      <trkpt lat="49.32227" lon="-0.01639">
        <time>2021-10-17T13:05:42.488Z</time>
      </trkpt>
      <trkpt lat="49.32225" lon="-0.01647">
        <time>2021-10-17T13:05:46.499Z</time>
      </trkpt>
      <trkpt lat="49.32221" lon="-0.01656">
        <time>2021-10-17T13:05:51.489Z</time>
      </trkpt>
      <trkpt lat="49.32217" lon="-0.01666">
        <time>2021-10-17T13:05:56.494Z</time>
      </trkpt>
      <trkpt lat="49.32213" lon="-0.01677">
        <time>2021-10-17T13:06:01.479Z</time>
      </trkpt>
      <trkpt lat="49.32209" lon="-0.01687">
        <time>2021-10-17T13:06:06.488Z</time>
      </trkpt>
      <trkpt lat="49.32206" lon="-0.01695">
        <time>2021-10-17T13:06:10.494Z</time>
      </trkpt>
      <trkpt lat="49.32202" lon="-0.01705">
        <time>2021-10-17T13:06:15.479Z</time>
      </trkpt>
      <trkpt lat="49.32199" lon="-0.01714">
        <time>2021-10-17T13:06:19.493Z</time>
      </trkpt>
      <trkpt lat="49.32196" lon="-0.01725">
        <time>2021-10-17T13:06:24.491Z</time>
      </trkpt>
      <trkpt lat="49.32192" lon="-0.01735">
        <time>2021-10-17T13:06:29.490Z</time>
      </trkpt>
      <trkpt lat="49.32187" lon="-0.01745">
        <time>2021-10-17T13:06:34.507Z</time>
      </trkpt>
      <trkpt lat="49.32183" lon="-0.01754">
        <time>2021-10-17T13:06:39.485Z</time>
      </trkpt>
      <trkpt lat="49.32179" lon="-0.01764">
        <time>2021-10-17T13:06:44.487Z</time>
      </trkpt>
      <trkpt lat="49.32175" lon="-0.01771">
        <time>2021-10-17T13:06:48.618Z</time>
      </trkpt>
      <trkpt lat="49.32171" lon="-0.01781">
        <time>2021-10-17T13:06:53.491Z</time>
      </trkpt>
      <trkpt lat="49.32166" lon="-0.0179">
        <time>2021-10-17T13:06:58.495Z</time>
      </trkpt>
      <trkpt lat="49.3216" lon="-0.01799">
        <time>2021-10-17T13:07:03.493Z</time>
      </trkpt>
      <trkpt lat="49.32156" lon="-0.01809">
        <time>2021-10-17T13:07:08.489Z</time>
      </trkpt>
      <trkpt lat="49.32151" lon="-0.01816">
        <time>2021-10-17T13:07:12.498Z</time>
      </trkpt>
      <trkpt lat="49.3215" lon="-0.01824">
        <time>2021-10-17T13:07:16.495Z</time>
      </trkpt>
      <trkpt lat="49.32151" lon="-0.01828">
        <time>2021-10-17T13:07:21.480Z</time>
      </trkpt>
      <trkpt lat="49.3215" lon="-0.01832">
        <time>2021-10-17T13:07:25.481Z</time>
      </trkpt>
      <trkpt lat="49.32147" lon="-0.01843">
        <time>2021-10-17T13:07:30.475Z</time>
      </trkpt>
      <trkpt lat="49.32145" lon="-0.01856">
        <time>2021-10-17T13:07:35.478Z</time>
      </trkpt>
      <trkpt lat="49.32142" lon="-0.01868">
        <time>2021-10-17T13:07:40.469Z</time>
      </trkpt>
      <trkpt lat="49.32139" lon="-0.01876">
        <time>2021-10-17T13:07:44.488Z</time>
      </trkpt>
      <trkpt lat="49.32139" lon="-0.01887">
        <time>2021-10-17T13:07:49.501Z</time>
      </trkpt>
      <trkpt lat="49.32136" lon="-0.01897">
        <time>2021-10-17T13:07:54.479Z</time>
      </trkpt>
      <trkpt lat="49.32131" lon="-0.01907">
        <time>2021-10-17T13:07:59.503Z</time>
      </trkpt>
      <trkpt lat="49.32126" lon="-0.01915">
        <time>2021-10-17T13:08:04.484Z</time>
      </trkpt>
      <trkpt lat="49.32122" lon="-0.01925">
        <time>2021-10-17T13:08:09.492Z</time>
      </trkpt>
      <trkpt lat="49.32119" lon="-0.01935">
        <time>2021-10-17T13:08:14.480Z</time>
      </trkpt>
      <trkpt lat="49.32117" lon="-0.01944">
        <time>2021-10-17T13:08:18.487Z</time>
      </trkpt>
      <trkpt lat="49.32114" lon="-0.01953">
        <time>2021-10-17T13:08:22.489Z</time>
      </trkpt>
      <trkpt lat="49.3211" lon="-0.01964">
        <time>2021-10-17T13:08:27.483Z</time>
      </trkpt>
      <trkpt lat="49.32107" lon="-0.01972">
        <time>2021-10-17T13:08:31.486Z</time>
      </trkpt>
      <trkpt lat="49.32103" lon="-0.01983">
        <time>2021-10-17T13:08:36.482Z</time>
      </trkpt>
      <trkpt lat="49.32099" lon="-0.01993">
        <time>2021-10-17T13:08:41.473Z</time>
      </trkpt>
      <trkpt lat="49.32097" lon="-0.02001">
        <time>2021-10-17T13:08:45.485Z</time>
      </trkpt>
      <trkpt lat="49.32093" lon="-0.0201">
        <time>2021-10-17T13:08:50.479Z</time>
      </trkpt>
      <trkpt lat="49.32091" lon="-0.02019">
        <time>2021-10-17T13:08:54.482Z</time>
      </trkpt>
      <trkpt lat="49.32088" lon="-0.02027">
        <time>2021-10-17T13:08:58.487Z</time>
      </trkpt>
      <trkpt lat="49.32084" lon="-0.02038">
        <time>2021-10-17T13:09:03.486Z</time>
      </trkpt>
      <trkpt lat="49.32081" lon="-0.02046">
        <time>2021-10-17T13:09:07.489Z</time>
      </trkpt>
      <trkpt lat="49.32077" lon="-0.02056">
        <time>2021-10-17T13:09:12.491Z</time>
      </trkpt>
      <trkpt lat="49.32074" lon="-0.02065">
        <time>2021-10-17T13:09:16.496Z</time>
      </trkpt>
      <trkpt lat="49.32071" lon="-0.02074">
        <time>2021-10-17T13:09:20.614Z</time>
      </trkpt>
      <trkpt lat="49.32066" lon="-0.02083">
        <time>2021-10-17T13:09:25.486Z</time>
      </trkpt>
      <trkpt lat="49.32064" lon="-0.02091">
        <time>2021-10-17T13:09:29.491Z</time>
      </trkpt>
      <trkpt lat="49.3206" lon="-0.021">
        <time>2021-10-17T13:09:33.498Z</time>
      </trkpt>
      <trkpt lat="49.32057" lon="-0.02109">
        <time>2021-10-17T13:09:38.496Z</time>
      </trkpt>
      <trkpt lat="49.32054" lon="-0.02121">
        <time>2021-10-17T13:09:43.487Z</time>
      </trkpt>
      <trkpt lat="49.32051" lon="-0.02129">
        <time>2021-10-17T13:09:47.492Z</time>
      </trkpt>
      <trkpt lat="49.32048" lon="-0.0214">
        <time>2021-10-17T13:09:52.474Z</time>
      </trkpt>
      <trkpt lat="49.32043" lon="-0.0215">
        <time>2021-10-17T13:09:57.480Z</time>
      </trkpt>
      <trkpt lat="49.3204" lon="-0.0216">
        <time>2021-10-17T13:10:02.481Z</time>
      </trkpt>
      <trkpt lat="49.32037" lon="-0.02168">
        <time>2021-10-17T13:10:06.481Z</time>
      </trkpt>
      <trkpt lat="49.32032" lon="-0.02176">
        <time>2021-10-17T13:10:11.487Z</time>
      </trkpt>
      <trkpt lat="49.32027" lon="-0.02185">
        <time>2021-10-17T13:10:16.484Z</time>
      </trkpt>
      <trkpt lat="49.32023" lon="-0.02196">
        <time>2021-10-17T13:10:21.501Z</time>
      </trkpt>
      <trkpt lat="49.3202" lon="-0.02207">
        <time>2021-10-17T13:10:26.480Z</time>
      </trkpt>
      <trkpt lat="49.32016" lon="-0.02215">
        <time>2021-10-17T13:10:30.480Z</time>
      </trkpt>
      <trkpt lat="49.32012" lon="-0.02226">
        <time>2021-10-17T13:10:35.496Z</time>
      </trkpt>
      <trkpt lat="49.32007" lon="-0.02236">
        <time>2021-10-17T13:10:40.482Z</time>
      </trkpt>
      <trkpt lat="49.32004" lon="-0.02245">
        <time>2021-10-17T13:10:44.495Z</time>
      </trkpt>
      <trkpt lat="49.32" lon="-0.02255">
        <time>2021-10-17T13:10:49.476Z</time>
      </trkpt>
      <trkpt lat="49.31997" lon="-0.02264">
        <time>2021-10-17T13:10:53.496Z</time>
      </trkpt>
      <trkpt lat="49.31994" lon="-0.02275">
        <time>2021-10-17T13:10:58.489Z</time>
      </trkpt>
      <trkpt lat="49.31991" lon="-0.02285">
        <time>2021-10-17T13:11:03.484Z</time>
      </trkpt>
      <trkpt lat="49.31989" lon="-0.02293">
        <time>2021-10-17T13:11:07.486Z</time>
      </trkpt>
      <trkpt lat="49.31987" lon="-0.02303">
        <time>2021-10-17T13:11:12.489Z</time>
      </trkpt>
      <trkpt lat="49.31983" lon="-0.02314">
        <time>2021-10-17T13:11:17.476Z</time>
      </trkpt>
      <trkpt lat="49.31981" lon="-0.02323">
        <time>2021-10-17T13:11:21.479Z</time>
      </trkpt>
      <trkpt lat="49.31979" lon="-0.02331">
        <time>2021-10-17T13:11:25.486Z</time>
      </trkpt>
      <trkpt lat="49.31976" lon="-0.02339">
        <time>2021-10-17T13:11:29.498Z</time>
      </trkpt>
      <trkpt lat="49.31972" lon="-0.02349">
        <time>2021-10-17T13:11:34.474Z</time>
      </trkpt>
      <trkpt lat="49.3197" lon="-0.02358">
        <time>2021-10-17T13:11:38.480Z</time>
      </trkpt>
      <trkpt lat="49.31967" lon="-0.02365">
        <time>2021-10-17T13:11:42.476Z</time>
      </trkpt>
      <trkpt lat="49.31964" lon="-0.02376">
        <time>2021-10-17T13:11:47.478Z</time>
      </trkpt>
      <trkpt lat="49.31961" lon="-0.02384">
        <time>2021-10-17T13:11:51.480Z</time>
      </trkpt>
      <trkpt lat="49.31957" lon="-0.02394">
        <time>2021-10-17T13:11:56.481Z</time>
      </trkpt>
      <trkpt lat="49.31954" lon="-0.02403">
        <time>2021-10-17T13:12:00.491Z</time>
      </trkpt>
      <trkpt lat="49.31952" lon="-0.02412">
        <time>2021-10-17T13:12:04.491Z</time>
      </trkpt>
      <trkpt lat="49.31949" lon="-0.02422">
        <time>2021-10-17T13:12:09.481Z</time>
      </trkpt>
      <trkpt lat="49.31946" lon="-0.0243">
        <time>2021-10-17T13:12:13.497Z</time>
      </trkpt>
      <trkpt lat="49.31942" lon="-0.02439">
        <time>2021-10-17T13:12:18.483Z</time>
      </trkpt>
      <trkpt lat="49.31939" lon="-0.02447">
        <time>2021-10-17T13:12:22.479Z</time>
      </trkpt>
      <trkpt lat="49.31936" lon="-0.02458">
        <time>2021-10-17T13:12:27.486Z</time>
      </trkpt>
      <trkpt lat="49.31932" lon="-0.02468">
        <time>2021-10-17T13:12:32.485Z</time>
      </trkpt>
      <trkpt lat="49.3193" lon="-0.0248">
        <time>2021-10-17T13:12:37.480Z</time>
      </trkpt>
      <trkpt lat="49.31927" lon="-0.0249">
        <time>2021-10-17T13:12:42.487Z</time>
      </trkpt>
      <trkpt lat="49.31923" lon="-0.02501">
        <time>2021-10-17T13:12:47.478Z</time>
      </trkpt>
      <trkpt lat="49.3192" lon="-0.02509">
        <time>2021-10-17T13:12:51.485Z</time>
      </trkpt>
      <trkpt lat="49.31917" lon="-0.02517">
        <time>2021-10-17T13:12:55.481Z</time>
      </trkpt>
      <trkpt lat="49.31914" lon="-0.02528">
        <time>2021-10-17T13:13:00.484Z</time>
      </trkpt>
      <trkpt lat="49.31912" lon="-0.02536">
        <time>2021-10-17T13:13:04.484Z</time>
      </trkpt>
      <trkpt lat="49.31908" lon="-0.02546">
        <time>2021-10-17T13:13:09.498Z</time>
      </trkpt>
      <trkpt lat="49.31905" lon="-0.02557">
        <time>2021-10-17T13:13:14.485Z</time>
      </trkpt>
      <trkpt lat="49.31902" lon="-0.02565">
        <time>2021-10-17T13:13:19.475Z</time>
      </trkpt>
      <trkpt lat="49.31899" lon="-0.02573">
        <time>2021-10-17T13:13:24.491Z</time>
      </trkpt>
      <trkpt lat="49.31894" lon="-0.02575">
        <time>2021-10-17T13:13:29.471Z</time>
      </trkpt>
      <trkpt lat="49.3189" lon="-0.02581">
        <time>2021-10-17T13:13:34.476Z</time>
      </trkpt>
      <trkpt lat="49.31889" lon="-0.02582">
        <time>2021-10-17T13:13:39.479Z</time>
      </trkpt>
      <trkpt lat="49.3189" lon="-0.02589">
        <time>2021-10-17T13:13:44.491Z</time>
      </trkpt>
      <trkpt lat="49.31891" lon="-0.026">
        <time>2021-10-17T13:13:49.474Z</time>
      </trkpt>
      <trkpt lat="49.31893" lon="-0.02608">
        <time>2021-10-17T13:13:53.485Z</time>
      </trkpt>
      <trkpt lat="49.31896" lon="-0.02616">
        <time>2021-10-17T13:13:57.483Z</time>
      </trkpt>
      <trkpt lat="49.31897" lon="-0.02626">
        <ele>1</ele>
        <time>2021-10-17T13:14:02.469Z</time>
      </trkpt>
      <trkpt lat="49.31896" lon="-0.02636">
        <ele>1</ele>
        <time>2021-10-17T13:14:07.483Z</time>
      </trkpt>
      <trkpt lat="49.31894" lon="-0.02641">
        <ele>1</ele>
        <time>2021-10-17T13:14:12.489Z</time>
      </trkpt>
      <trkpt lat="49.31894" lon="-0.02651">
        <ele>1</ele>
        <time>2021-10-17T13:14:17.484Z</time>
      </trkpt>
      <trkpt lat="49.31896" lon="-0.0266">
        <ele>1</ele>
        <time>2021-10-17T13:14:21.487Z</time>
      </trkpt>
      <trkpt lat="49.31897" lon="-0.02671">
        <ele>1</ele>
        <time>2021-10-17T13:14:26.474Z</time>
      </trkpt>
      <trkpt lat="49.31894" lon="-0.0268">
        <ele>1</ele>
        <time>2021-10-17T13:14:30.480Z</time>
      </trkpt>
      <trkpt lat="49.31887" lon="-0.02689">
        <ele>1</ele>
        <time>2021-10-17T13:14:44.487Z</time>
      </trkpt>
      <trkpt lat="49.31888" lon="-0.02695">
        <ele>1</ele>
        <time>2021-10-17T13:14:49.477Z</time>
      </trkpt>
      <trkpt lat="49.3189" lon="-0.02704">
        <ele>1</ele>
        <time>2021-10-17T13:14:53.482Z</time>
      </trkpt>
      <trkpt lat="49.3189" lon="-0.02715">
        <ele>1</ele>
        <time>2021-10-17T13:14:58.475Z</time>
      </trkpt>
      <trkpt lat="49.31889" lon="-0.02727">
        <time>2021-10-17T13:15:03.472Z</time>
      </trkpt>
      <trkpt lat="49.31888" lon="-0.02736">
        <time>2021-10-17T13:15:07.484Z</time>
      </trkpt>
      <trkpt lat="49.31887" lon="-0.02748">
        <time>2021-10-17T13:15:12.485Z</time>
      </trkpt>
      <trkpt lat="49.31885" lon="-0.02757">
        <time>2021-10-17T13:15:16.486Z</time>
      </trkpt>
      <trkpt lat="49.31883" lon="-0.02767">
        <time>2021-10-17T13:15:21.479Z</time>
      </trkpt>
      <trkpt lat="49.31881" lon="-0.02778">
        <time>2021-10-17T13:15:26.468Z</time>
      </trkpt>
      <trkpt lat="49.3188" lon="-0.02786">
        <time>2021-10-17T13:15:30.474Z</time>
      </trkpt>
      <trkpt lat="49.3188" lon="-0.02795">
        <time>2021-10-17T13:15:34.488Z</time>
      </trkpt>
      <trkpt lat="49.31881" lon="-0.02807">
        <time>2021-10-17T13:15:39.483Z</time>
      </trkpt>
      <trkpt lat="49.31884" lon="-0.02818">
        <time>2021-10-17T13:15:44.479Z</time>
      </trkpt>
      <trkpt lat="49.31886" lon="-0.02827">
        <time>2021-10-17T13:15:48.489Z</time>
      </trkpt>
      <trkpt lat="49.31885" lon="-0.02837">
        <time>2021-10-17T13:15:53.488Z</time>
      </trkpt>
      <trkpt lat="49.31885" lon="-0.0284">
        <time>2021-10-17T13:15:58.479Z</time>
      </trkpt>
      <trkpt lat="49.31883" lon="-0.02848">
        <time>2021-10-17T13:16:02.496Z</time>
      </trkpt>
      <trkpt lat="49.31881" lon="-0.0286">
        <time>2021-10-17T13:16:07.476Z</time>
      </trkpt>
      <trkpt lat="49.31882" lon="-0.02866">
        <time>2021-10-17T13:16:12.473Z</time>
      </trkpt>
      <trkpt lat="49.31882" lon="-0.0287">
        <time>2021-10-17T13:16:16.472Z</time>
      </trkpt>
      <trkpt lat="49.31877" lon="-0.02875">
        <time>2021-10-17T13:16:21.473Z</time>
      </trkpt>
      <trkpt lat="49.31876" lon="-0.02885">
        <time>2021-10-17T13:16:25.485Z</time>
      </trkpt>
      <trkpt lat="49.31872" lon="-0.02898">
        <time>2021-10-17T13:16:30.483Z</time>
      </trkpt>
      <trkpt lat="49.31867" lon="-0.02907">
        <time>2021-10-17T13:16:35.469Z</time>
      </trkpt>
      <trkpt lat="49.31865" lon="-0.02915">
        <time>2021-10-17T13:16:39.494Z</time>
      </trkpt>
      <trkpt lat="49.31862" lon="-0.02927">
        <time>2021-10-17T13:16:44.485Z</time>
      </trkpt>
      <trkpt lat="49.3186" lon="-0.02939">
        <time>2021-10-17T13:16:49.470Z</time>
      </trkpt>
      <trkpt lat="49.31858" lon="-0.02949">
        <time>2021-10-17T13:16:53.482Z</time>
      </trkpt>
      <trkpt lat="49.31855" lon="-0.02959">
        <time>2021-10-17T13:16:58.476Z</time>
      </trkpt>
      <trkpt lat="49.31854" lon="-0.0297">
        <time>2021-10-17T13:17:03.483Z</time>
      </trkpt>
      <trkpt lat="49.31852" lon="-0.02982">
        <time>2021-10-17T13:17:08.482Z</time>
      </trkpt>
      <trkpt lat="49.3185" lon="-0.02995">
        <time>2021-10-17T13:17:13.483Z</time>
      </trkpt>
      <trkpt lat="49.31848" lon="-0.03007">
        <time>2021-10-17T13:17:18.483Z</time>
      </trkpt>
      <trkpt lat="49.31847" lon="-0.03016">
        <time>2021-10-17T13:17:22.479Z</time>
      </trkpt>
      <trkpt lat="49.31845" lon="-0.03028">
        <time>2021-10-17T13:17:27.477Z</time>
      </trkpt>
      <trkpt lat="49.31841" lon="-0.03039">
        <time>2021-10-17T13:17:32.480Z</time>
      </trkpt>
      <trkpt lat="49.31836" lon="-0.0305">
        <time>2021-10-17T13:17:37.470Z</time>
      </trkpt>
      <trkpt lat="49.31832" lon="-0.03058">
        <time>2021-10-17T13:17:41.476Z</time>
      </trkpt>
      <trkpt lat="49.31827" lon="-0.03069">
        <time>2021-10-17T13:17:46.481Z</time>
      </trkpt>
      <trkpt lat="49.31824" lon="-0.03077">
        <time>2021-10-17T13:17:50.480Z</time>
      </trkpt>
      <trkpt lat="49.31819" lon="-0.03087">
        <time>2021-10-17T13:17:55.475Z</time>
      </trkpt>
      <trkpt lat="49.31816" lon="-0.03096">
        <time>2021-10-17T13:17:59.483Z</time>
      </trkpt>
      <trkpt lat="49.31812" lon="-0.03108">
        <time>2021-10-17T13:18:04.474Z</time>
      </trkpt>
      <trkpt lat="49.31809" lon="-0.03121">
        <time>2021-10-17T13:18:09.469Z</time>
      </trkpt>
      <trkpt lat="49.31806" lon="-0.0313">
        <time>2021-10-17T13:18:13.471Z</time>
      </trkpt>
      <trkpt lat="49.31802" lon="-0.0314">
        <time>2021-10-17T13:18:17.482Z</time>
      </trkpt>
      <trkpt lat="49.31799" lon="-0.03149">
        <time>2021-10-17T13:18:21.482Z</time>
      </trkpt>
      <trkpt lat="49.31795" lon="-0.03161">
        <time>2021-10-17T13:18:26.484Z</time>
      </trkpt>
      <trkpt lat="49.31792" lon="-0.03173">
        <time>2021-10-17T13:18:31.480Z</time>
      </trkpt>
      <trkpt lat="49.3179" lon="-0.03186">
        <time>2021-10-17T13:18:36.477Z</time>
      </trkpt>
      <trkpt lat="49.31788" lon="-0.03196">
        <time>2021-10-17T13:18:40.481Z</time>
      </trkpt>
      <trkpt lat="49.31785" lon="-0.03207">
        <time>2021-10-17T13:18:45.482Z</time>
      </trkpt>
      <trkpt lat="49.31782" lon="-0.03217">
        <time>2021-10-17T13:18:49.486Z</time>
      </trkpt>
      <trkpt lat="49.31779" lon="-0.03227">
        <time>2021-10-17T13:18:53.489Z</time>
      </trkpt>
      <trkpt lat="49.31776" lon="-0.03239">
        <time>2021-10-17T13:18:58.484Z</time>
      </trkpt>
      <trkpt lat="49.31773" lon="-0.03248">
        <time>2021-10-17T13:19:02.484Z</time>
      </trkpt>
      <trkpt lat="49.31769" lon="-0.0326">
        <time>2021-10-17T13:19:07.485Z</time>
      </trkpt>
      <trkpt lat="49.31766" lon="-0.03271">
        <time>2021-10-17T13:19:12.490Z</time>
      </trkpt>
      <trkpt lat="49.31764" lon="-0.03283">
        <time>2021-10-17T13:19:17.478Z</time>
      </trkpt>
      <trkpt lat="49.31761" lon="-0.03292">
        <time>2021-10-17T13:19:21.480Z</time>
      </trkpt>
      <trkpt lat="49.31757" lon="-0.033">
        <time>2021-10-17T13:19:25.486Z</time>
      </trkpt>
      <trkpt lat="49.31753" lon="-0.0331">
        <time>2021-10-17T13:19:30.473Z</time>
      </trkpt>
      <trkpt lat="49.31751" lon="-0.0332">
        <time>2021-10-17T13:19:34.482Z</time>
      </trkpt>
      <trkpt lat="49.31748" lon="-0.03331">
        <time>2021-10-17T13:19:39.476Z</time>
      </trkpt>
      <trkpt lat="49.31745" lon="-0.03339">
        <time>2021-10-17T13:19:43.478Z</time>
      </trkpt>
      <trkpt lat="49.31742" lon="-0.03351">
        <time>2021-10-17T13:19:48.494Z</time>
      </trkpt>
      <trkpt lat="49.3174" lon="-0.03362">
        <time>2021-10-17T13:19:53.495Z</time>
      </trkpt>
      <trkpt lat="49.31737" lon="-0.03372">
        <time>2021-10-17T13:19:57.488Z</time>
      </trkpt>
      <trkpt lat="49.31734" lon="-0.03383">
        <time>2021-10-17T13:20:02.478Z</time>
      </trkpt>
      <trkpt lat="49.31732" lon="-0.03394">
        <time>2021-10-17T13:20:07.490Z</time>
      </trkpt>
      <trkpt lat="49.3173" lon="-0.03407">
        <time>2021-10-17T13:20:12.500Z</time>
      </trkpt>
      <trkpt lat="49.31727" lon="-0.03418">
        <time>2021-10-17T13:20:17.484Z</time>
      </trkpt>
      <trkpt lat="49.31724" lon="-0.0343">
        <time>2021-10-17T13:20:22.468Z</time>
      </trkpt>
      <trkpt lat="49.31721" lon="-0.03442">
        <time>2021-10-17T13:20:27.484Z</time>
      </trkpt>
      <trkpt lat="49.31718" lon="-0.03451">
        <time>2021-10-17T13:20:31.488Z</time>
      </trkpt>
      <trkpt lat="49.31715" lon="-0.03463">
        <time>2021-10-17T13:20:36.475Z</time>
      </trkpt>
      <trkpt lat="49.31712" lon="-0.0347">
        <time>2021-10-17T13:20:40.483Z</time>
      </trkpt>
      <trkpt lat="49.3171" lon="-0.03475">
        <time>2021-10-17T13:20:45.478Z</time>
      </trkpt>
      <trkpt lat="49.31711" lon="-0.03479">
        <time>2021-10-17T13:20:49.480Z</time>
      </trkpt>
      <trkpt lat="49.31711" lon="-0.03488">
        <time>2021-10-17T13:20:54.473Z</time>
      </trkpt>
      <trkpt lat="49.31713" lon="-0.03499">
        <time>2021-10-17T13:20:59.471Z</time>
      </trkpt>
      <trkpt lat="49.31713" lon="-0.03502">
        <time>2021-10-17T13:21:04.473Z</time>
      </trkpt>
      <trkpt lat="49.31712" lon="-0.03506">
        <time>2021-10-17T13:21:09.487Z</time>
      </trkpt>
      <trkpt lat="49.3171" lon="-0.03518">
        <time>2021-10-17T13:21:14.471Z</time>
      </trkpt>
      <trkpt lat="49.31708" lon="-0.03527">
        <time>2021-10-17T13:21:18.485Z</time>
      </trkpt>
      <trkpt lat="49.31707" lon="-0.03537">
        <time>2021-10-17T13:21:23.481Z</time>
      </trkpt>
      <trkpt lat="49.31708" lon="-0.03538">
        <time>2021-10-17T13:21:27.481Z</time>
      </trkpt>
      <trkpt lat="49.31708" lon="-0.03538">
        <time>2021-10-17T13:21:32.484Z</time>
      </trkpt>
      <trkpt lat="49.31704" lon="-0.03546">
        <time>2021-10-17T13:21:37.480Z</time>
      </trkpt>
      <trkpt lat="49.31701" lon="-0.03558">
        <time>2021-10-17T13:21:42.472Z</time>
      </trkpt>
      <trkpt lat="49.31696" lon="-0.03565">
        <time>2021-10-17T13:21:47.474Z</time>
      </trkpt>
      <trkpt lat="49.31696" lon="-0.03566">
        <time>2021-10-17T13:21:51.472Z</time>
      </trkpt>
      <trkpt lat="49.31695" lon="-0.03566">
        <time>2021-10-17T13:21:56.475Z</time>
      </trkpt>
      <trkpt lat="49.3169" lon="-0.03575">
        <time>2021-10-17T13:22:01.472Z</time>
      </trkpt>
      <trkpt lat="49.31685" lon="-0.03586">
        <time>2021-10-17T13:22:06.475Z</time>
      </trkpt>
      <trkpt lat="49.3168" lon="-0.03596">
        <time>2021-10-17T13:22:11.474Z</time>
      </trkpt>
      <trkpt lat="49.31678" lon="-0.03606">
        <time>2021-10-17T13:22:15.481Z</time>
      </trkpt>
      <trkpt lat="49.3168" lon="-0.03614">
        <time>2021-10-17T13:22:20.483Z</time>
      </trkpt>
      <trkpt lat="49.31685" lon="-0.03611">
        <time>2021-10-17T13:22:25.471Z</time>
      </trkpt>
      <trkpt lat="49.31683" lon="-0.03607">
        <time>2021-10-17T13:22:30.467Z</time>
      </trkpt>
      <trkpt lat="49.31677" lon="-0.03616">
        <time>2021-10-17T13:22:35.472Z</time>
      </trkpt>
      <trkpt lat="49.31673" lon="-0.03629">
        <time>2021-10-17T13:22:40.478Z</time>
      </trkpt>
      <trkpt lat="49.31671" lon="-0.0364">
        <time>2021-10-17T13:22:44.470Z</time>
      </trkpt>
      <trkpt lat="49.31668" lon="-0.03652">
        <time>2021-10-17T13:22:49.480Z</time>
      </trkpt>
      <trkpt lat="49.31666" lon="-0.03663">
        <time>2021-10-17T13:22:54.482Z</time>
      </trkpt>
      <trkpt lat="49.31672" lon="-0.03666">
        <time>2021-10-17T13:22:58.478Z</time>
      </trkpt>
      <trkpt lat="49.31668" lon="-0.0367">
        <time>2021-10-17T13:23:03.472Z</time>
      </trkpt>
      <trkpt lat="49.31665" lon="-0.03678">
        <time>2021-10-17T13:23:07.471Z</time>
      </trkpt>
      <trkpt lat="49.31661" lon="-0.03686">
        <time>2021-10-17T13:23:11.472Z</time>
      </trkpt>
      <trkpt lat="49.31658" lon="-0.03697">
        <time>2021-10-17T13:23:16.482Z</time>
      </trkpt>
      <trkpt lat="49.31655" lon="-0.03706">
        <time>2021-10-17T13:23:20.476Z</time>
      </trkpt>
      <trkpt lat="49.31653" lon="-0.03717">
        <time>2021-10-17T13:23:25.477Z</time>
      </trkpt>
      <trkpt lat="49.31651" lon="-0.03727">
        <time>2021-10-17T13:23:29.477Z</time>
      </trkpt>
      <trkpt lat="49.31648" lon="-0.03737">
        <time>2021-10-17T13:23:33.483Z</time>
      </trkpt>
      <trkpt lat="49.31644" lon="-0.03749">
        <time>2021-10-17T13:23:38.478Z</time>
      </trkpt>
      <trkpt lat="49.3164" lon="-0.0376">
        <time>2021-10-17T13:23:43.482Z</time>
      </trkpt>
      <trkpt lat="49.31637" lon="-0.03769">
        <time>2021-10-17T13:23:47.485Z</time>
      </trkpt>
      <trkpt lat="49.31634" lon="-0.03781">
        <time>2021-10-17T13:23:52.487Z</time>
      </trkpt>
      <trkpt lat="49.3163" lon="-0.03793">
        <time>2021-10-17T13:23:57.486Z</time>
      </trkpt>
      <trkpt lat="49.31628" lon="-0.03803">
        <time>2021-10-17T13:24:01.484Z</time>
      </trkpt>
      <trkpt lat="49.31625" lon="-0.03815">
        <time>2021-10-17T13:24:06.486Z</time>
      </trkpt>
      <trkpt lat="49.31622" lon="-0.03827">
        <time>2021-10-17T13:24:11.483Z</time>
      </trkpt>
      <trkpt lat="49.3162" lon="-0.03836">
        <time>2021-10-17T13:24:15.487Z</time>
      </trkpt>
      <trkpt lat="49.31617" lon="-0.03847">
        <time>2021-10-17T13:24:20.482Z</time>
      </trkpt>
      <trkpt lat="49.31615" lon="-0.03855">
        <time>2021-10-17T13:24:24.483Z</time>
      </trkpt>
      <trkpt lat="49.31612" lon="-0.03863">
        <time>2021-10-17T13:24:28.490Z</time>
      </trkpt>
      <trkpt lat="49.31611" lon="-0.03874">
        <time>2021-10-17T13:24:33.478Z</time>
      </trkpt>
      <trkpt lat="49.31614" lon="-0.03881">
        <time>2021-10-17T13:24:38.495Z</time>
      </trkpt>
      <trkpt lat="49.31618" lon="-0.03888">
        <time>2021-10-17T13:24:43.489Z</time>
      </trkpt>
      <trkpt lat="49.31619" lon="-0.03894">
        <time>2021-10-17T13:24:48.477Z</time>
      </trkpt>
      <trkpt lat="49.31618" lon="-0.03892">
        <time>2021-10-17T13:24:53.476Z</time>
      </trkpt>
      <trkpt lat="49.31617" lon="-0.03889">
        <time>2021-10-17T13:24:58.475Z</time>
      </trkpt>
      <trkpt lat="49.31613" lon="-0.03889">
        <time>2021-10-17T13:25:03.481Z</time>
      </trkpt>
      <trkpt lat="49.31608" lon="-0.03889">
        <time>2021-10-17T13:25:08.486Z</time>
      </trkpt>
      <trkpt lat="49.31605" lon="-0.03888">
        <time>2021-10-17T13:25:12.491Z</time>
      </trkpt>
      <trkpt lat="49.31606" lon="-0.03889">
        <time>2021-10-17T13:25:17.475Z</time>
      </trkpt>
      <trkpt lat="49.31604" lon="-0.03893">
        <time>2021-10-17T13:25:22.485Z</time>
      </trkpt>
      <trkpt lat="49.316" lon="-0.03896">
        <time>2021-10-17T13:25:27.472Z</time>
      </trkpt>
      <trkpt lat="49.31597" lon="-0.03897">
        <time>2021-10-17T13:25:32.474Z</time>
      </trkpt>
      <trkpt lat="49.31601" lon="-0.03897">
        <time>2021-10-17T13:29:01.485Z</time>
      </trkpt>
      <trkpt lat="49.316" lon="-0.039">
        <time>2021-10-17T13:29:06.479Z</time>
      </trkpt>
      <trkpt lat="49.31601" lon="-0.03908">
        <time>2021-10-17T13:29:10.480Z</time>
      </trkpt>
      <trkpt lat="49.31603" lon="-0.03913">
        <time>2021-10-17T13:29:14.498Z</time>
      </trkpt>
      <trkpt lat="49.31605" lon="-0.03921">
        <time>2021-10-17T13:29:19.490Z</time>
      </trkpt>
      <trkpt lat="49.31607" lon="-0.03928">
        <time>2021-10-17T13:29:23.489Z</time>
      </trkpt>
      <trkpt lat="49.3161" lon="-0.03939">
        <time>2021-10-17T13:29:28.488Z</time>
      </trkpt>
      <trkpt lat="49.31615" lon="-0.03944">
        <time>2021-10-17T13:29:32.491Z</time>
      </trkpt>
      <trkpt lat="49.31623" lon="-0.03945">
        <time>2021-10-17T13:29:37.483Z</time>
      </trkpt>
      <trkpt lat="49.31623" lon="-0.03953">
        <time>2021-10-17T13:29:41.479Z</time>
      </trkpt>
      <trkpt lat="49.3162" lon="-0.03961">
        <time>2021-10-17T13:29:45.484Z</time>
      </trkpt>
      <trkpt lat="49.31617" lon="-0.03971">
        <time>2021-10-17T13:29:50.480Z</time>
      </trkpt>
      <trkpt lat="49.31614" lon="-0.03979">
        <time>2021-10-17T13:29:54.483Z</time>
      </trkpt>
      <trkpt lat="49.31612" lon="-0.03991">
        <time>2021-10-17T13:29:59.481Z</time>
      </trkpt>
      <trkpt lat="49.3161" lon="-0.03999">
        <time>2021-10-17T13:30:03.486Z</time>
      </trkpt>
      <trkpt lat="49.31608" lon="-0.04011">
        <time>2021-10-17T13:30:08.494Z</time>
      </trkpt>
      <trkpt lat="49.31605" lon="-0.04023">
        <time>2021-10-17T13:30:13.501Z</time>
      </trkpt>
      <trkpt lat="49.31602" lon="-0.04036">
        <time>2021-10-17T13:30:18.488Z</time>
      </trkpt>
      <trkpt lat="49.31598" lon="-0.04048">
        <time>2021-10-17T13:30:23.483Z</time>
      </trkpt>
      <trkpt lat="49.31595" lon="-0.04058">
        <time>2021-10-17T13:30:27.481Z</time>
      </trkpt>
      <trkpt lat="49.31593" lon="-0.04068">
        <time>2021-10-17T13:30:31.489Z</time>
      </trkpt>
      <trkpt lat="49.3159" lon="-0.04081">
        <time>2021-10-17T13:30:36.486Z</time>
      </trkpt>
      <trkpt lat="49.31587" lon="-0.04094">
        <time>2021-10-17T13:30:41.482Z</time>
      </trkpt>
      <trkpt lat="49.31583" lon="-0.04101">
        <time>2021-10-17T13:30:45.494Z</time>
      </trkpt>
      <trkpt lat="49.31579" lon="-0.04112">
        <time>2021-10-17T13:30:50.484Z</time>
      </trkpt>
      <trkpt lat="49.31574" lon="-0.04123">
        <time>2021-10-17T13:30:55.489Z</time>
      </trkpt>
      <trkpt lat="49.3157" lon="-0.04132">
        <time>2021-10-17T13:31:00.483Z</time>
      </trkpt>
      <trkpt lat="49.31567" lon="-0.04145">
        <time>2021-10-17T13:31:05.488Z</time>
      </trkpt>
      <trkpt lat="49.31563" lon="-0.04156">
        <time>2021-10-17T13:31:10.479Z</time>
      </trkpt>
      <trkpt lat="49.3156" lon="-0.04167">
        <time>2021-10-17T13:31:15.476Z</time>
      </trkpt>
      <trkpt lat="49.31557" lon="-0.04176">
        <time>2021-10-17T13:31:19.490Z</time>
      </trkpt>
      <trkpt lat="49.31554" lon="-0.04187">
        <time>2021-10-17T13:31:24.482Z</time>
      </trkpt>
      <trkpt lat="49.31551" lon="-0.04199">
        <time>2021-10-17T13:31:29.476Z</time>
      </trkpt>
      <trkpt lat="49.31548" lon="-0.04208">
        <time>2021-10-17T13:31:33.466Z</time>
      </trkpt>
      <trkpt lat="49.31544" lon="-0.04216">
        <time>2021-10-17T13:31:37.479Z</time>
      </trkpt>
      <trkpt lat="49.31541" lon="-0.04225">
        <time>2021-10-17T13:31:41.493Z</time>
      </trkpt>
      <trkpt lat="49.31537" lon="-0.04236">
        <time>2021-10-17T13:31:46.482Z</time>
      </trkpt>
      <trkpt lat="49.31533" lon="-0.04246">
        <time>2021-10-17T13:31:51.475Z</time>
      </trkpt>
      <trkpt lat="49.31531" lon="-0.04256">
        <time>2021-10-17T13:31:55.479Z</time>
      </trkpt>
      <trkpt lat="49.31528" lon="-0.04265">
        <time>2021-10-17T13:32:00.500Z</time>
      </trkpt>
      <trkpt lat="49.31524" lon="-0.04276">
        <time>2021-10-17T13:32:05.473Z</time>
      </trkpt>
      <trkpt lat="49.31521" lon="-0.04284">
        <time>2021-10-17T13:32:09.497Z</time>
      </trkpt>
      <trkpt lat="49.31517" lon="-0.04295">
        <time>2021-10-17T13:32:14.481Z</time>
      </trkpt>
      <trkpt lat="49.31515" lon="-0.04304">
        <time>2021-10-17T13:32:18.481Z</time>
      </trkpt>
      <trkpt lat="49.31511" lon="-0.04315">
        <time>2021-10-17T13:32:23.482Z</time>
      </trkpt>
      <trkpt lat="49.31508" lon="-0.04326">
        <time>2021-10-17T13:32:28.478Z</time>
      </trkpt>
      <trkpt lat="49.31505" lon="-0.04336">
        <time>2021-10-17T13:32:32.479Z</time>
      </trkpt>
      <trkpt lat="49.31501" lon="-0.04347">
        <time>2021-10-17T13:32:37.480Z</time>
      </trkpt>
      <trkpt lat="49.31498" lon="-0.04356">
        <time>2021-10-17T13:32:41.498Z</time>
      </trkpt>
      <trkpt lat="49.31494" lon="-0.04367">
        <time>2021-10-17T13:32:46.486Z</time>
      </trkpt>
      <trkpt lat="49.3149" lon="-0.04378">
        <time>2021-10-17T13:32:51.481Z</time>
      </trkpt>
      <trkpt lat="49.31488" lon="-0.04388">
        <time>2021-10-17T13:32:55.477Z</time>
      </trkpt>
      <trkpt lat="49.31486" lon="-0.04397">
        <time>2021-10-17T13:32:59.488Z</time>
      </trkpt>
      <trkpt lat="49.31482" lon="-0.04409">
        <time>2021-10-17T13:33:04.489Z</time>
      </trkpt>
      <trkpt lat="49.31478" lon="-0.04421">
        <time>2021-10-17T13:33:09.484Z</time>
      </trkpt>
      <trkpt lat="49.31475" lon="-0.04429">
        <time>2021-10-17T13:33:13.478Z</time>
      </trkpt>
      <trkpt lat="49.31472" lon="-0.04438">
        <time>2021-10-17T13:33:17.487Z</time>
      </trkpt>
      <trkpt lat="49.31469" lon="-0.04449">
        <time>2021-10-17T13:33:22.484Z</time>
      </trkpt>
      <trkpt lat="49.31467" lon="-0.04459">
        <time>2021-10-17T13:33:26.497Z</time>
      </trkpt>
      <trkpt lat="49.31464" lon="-0.0447">
        <time>2021-10-17T13:33:31.480Z</time>
      </trkpt>
      <trkpt lat="49.3146" lon="-0.04479">
        <time>2021-10-17T13:33:35.480Z</time>
      </trkpt>
      <trkpt lat="49.31457" lon="-0.0449">
        <time>2021-10-17T13:33:40.483Z</time>
      </trkpt>
      <trkpt lat="49.31454" lon="-0.04502">
        <time>2021-10-17T13:33:45.479Z</time>
      </trkpt>
      <trkpt lat="49.31451" lon="-0.04513">
        <time>2021-10-17T13:33:50.477Z</time>
      </trkpt>
      <trkpt lat="49.31448" lon="-0.04523">
        <time>2021-10-17T13:33:54.479Z</time>
      </trkpt>
      <trkpt lat="49.31445" lon="-0.04534">
        <time>2021-10-17T13:33:59.480Z</time>
      </trkpt>
      <trkpt lat="49.31443" lon="-0.04543">
        <time>2021-10-17T13:34:03.485Z</time>
      </trkpt>
      <trkpt lat="49.31439" lon="-0.04554">
        <time>2021-10-17T13:34:08.477Z</time>
      </trkpt>
      <trkpt lat="49.31436" lon="-0.04563">
        <time>2021-10-17T13:34:12.490Z</time>
      </trkpt>
      <trkpt lat="49.31432" lon="-0.04573">
        <time>2021-10-17T13:34:17.478Z</time>
      </trkpt>
      <trkpt lat="49.31429" lon="-0.04582">
        <time>2021-10-17T13:34:21.495Z</time>
      </trkpt>
      <trkpt lat="49.31426" lon="-0.04594">
        <time>2021-10-17T13:34:26.486Z</time>
      </trkpt>
      <trkpt lat="49.31421" lon="-0.04605">
        <time>2021-10-17T13:34:31.470Z</time>
      </trkpt>
      <trkpt lat="49.31418" lon="-0.04613">
        <time>2021-10-17T13:34:35.488Z</time>
      </trkpt>
      <trkpt lat="49.31414" lon="-0.04625">
        <time>2021-10-17T13:34:40.480Z</time>
      </trkpt>
      <trkpt lat="49.3141" lon="-0.04636">
        <time>2021-10-17T13:34:45.486Z</time>
      </trkpt>
      <trkpt lat="49.31406" lon="-0.04647">
        <time>2021-10-17T13:34:50.575Z</time>
      </trkpt>
      <trkpt lat="49.31403" lon="-0.04658">
        <time>2021-10-17T13:34:55.481Z</time>
      </trkpt>
      <trkpt lat="49.31399" lon="-0.04669">
        <time>2021-10-17T13:35:00.483Z</time>
      </trkpt>
      <trkpt lat="49.31394" lon="-0.0468">
        <time>2021-10-17T13:35:05.479Z</time>
      </trkpt>
      <trkpt lat="49.31392" lon="-0.04688">
        <time>2021-10-17T13:35:09.483Z</time>
      </trkpt>
      <trkpt lat="49.31388" lon="-0.04696">
        <time>2021-10-17T13:35:13.494Z</time>
      </trkpt>
      <trkpt lat="49.31385" lon="-0.04708">
        <time>2021-10-17T13:35:18.477Z</time>
      </trkpt>
      <trkpt lat="49.31382" lon="-0.0472">
        <time>2021-10-17T13:35:23.491Z</time>
      </trkpt>
      <trkpt lat="49.31379" lon="-0.0473">
        <time>2021-10-17T13:35:28.482Z</time>
      </trkpt>
      <trkpt lat="49.31375" lon="-0.04741">
        <time>2021-10-17T13:35:33.486Z</time>
      </trkpt>
      <trkpt lat="49.31371" lon="-0.04753">
        <time>2021-10-17T13:35:38.481Z</time>
      </trkpt>
      <trkpt lat="49.31369" lon="-0.04762">
        <time>2021-10-17T13:35:42.497Z</time>
      </trkpt>
      <trkpt lat="49.31366" lon="-0.04773">
        <time>2021-10-17T13:35:47.484Z</time>
      </trkpt>
      <trkpt lat="49.31363" lon="-0.04784">
        <time>2021-10-17T13:35:52.484Z</time>
      </trkpt>
      <trkpt lat="49.3136" lon="-0.04795">
        <time>2021-10-17T13:35:57.490Z</time>
      </trkpt>
      <trkpt lat="49.31357" lon="-0.04804">
        <time>2021-10-17T13:36:01.484Z</time>
      </trkpt>
      <trkpt lat="49.31353" lon="-0.04814">
        <time>2021-10-17T13:36:06.491Z</time>
      </trkpt>
      <trkpt lat="49.31349" lon="-0.04823">
        <time>2021-10-17T13:36:10.484Z</time>
      </trkpt>
      <trkpt lat="49.31345" lon="-0.04835">
        <time>2021-10-17T13:36:15.477Z</time>
      </trkpt>
      <trkpt lat="49.31341" lon="-0.04846">
        <time>2021-10-17T13:36:20.496Z</time>
      </trkpt>
      <trkpt lat="49.31338" lon="-0.04858">
        <time>2021-10-17T13:36:25.485Z</time>
      </trkpt>
      <trkpt lat="49.31334" lon="-0.04869">
        <time>2021-10-17T13:36:30.484Z</time>
      </trkpt>
      <trkpt lat="49.31331" lon="-0.04878">
        <time>2021-10-17T13:36:34.490Z</time>
      </trkpt>
      <trkpt lat="49.31328" lon="-0.0489">
        <time>2021-10-17T13:36:39.487Z</time>
      </trkpt>
      <trkpt lat="49.31324" lon="-0.04901">
        <time>2021-10-17T13:36:44.489Z</time>
      </trkpt>
      <trkpt lat="49.31319" lon="-0.04911">
        <time>2021-10-17T13:36:49.485Z</time>
      </trkpt>
      <trkpt lat="49.31315" lon="-0.04922">
        <time>2021-10-17T13:36:54.484Z</time>
      </trkpt>
      <trkpt lat="49.31311" lon="-0.04934">
        <time>2021-10-17T13:36:59.487Z</time>
      </trkpt>
      <trkpt lat="49.31308" lon="-0.04945">
        <time>2021-10-17T13:37:04.507Z</time>
      </trkpt>
      <trkpt lat="49.31306" lon="-0.04953">
        <time>2021-10-17T13:37:09.492Z</time>
      </trkpt>
      <trkpt lat="49.31307" lon="-0.0495">
        <time>2021-10-17T13:37:14.479Z</time>
      </trkpt>
      <trkpt lat="49.31308" lon="-0.04945">
        <time>2021-10-17T13:37:18.478Z</time>
      </trkpt>
      <trkpt lat="49.31309" lon="-0.0494">
        <time>2021-10-17T13:37:22.479Z</time>
      </trkpt>
      <trkpt lat="49.3131" lon="-0.04934">
        <time>2021-10-17T13:41:28.483Z</time>
      </trkpt>
      <trkpt lat="49.3131" lon="-0.04934">
        <time>2021-10-17T13:41:32.488Z</time>
      </trkpt>
      <trkpt lat="49.3131" lon="-0.04933">
        <time>2021-10-17T13:41:37.480Z</time>
      </trkpt>
      <trkpt lat="49.31311" lon="-0.04928">
        <time>2021-10-17T13:41:41.488Z</time>
      </trkpt>
      <trkpt lat="49.31312" lon="-0.04919">
        <time>2021-10-17T13:41:46.489Z</time>
      </trkpt>
      <trkpt lat="49.31313" lon="-0.04911">
        <time>2021-10-17T13:41:51.488Z</time>
      </trkpt>
      <trkpt lat="49.31315" lon="-0.04901">
        <time>2021-10-17T13:41:56.477Z</time>
      </trkpt>
      <trkpt lat="49.31317" lon="-0.04894">
        <time>2021-10-17T13:42:00.491Z</time>
      </trkpt>
      <trkpt lat="49.3132" lon="-0.04884">
        <time>2021-10-17T13:42:05.481Z</time>
      </trkpt>
      <trkpt lat="49.31323" lon="-0.04877">
        <time>2021-10-17T13:42:09.485Z</time>
      </trkpt>
      <trkpt lat="49.31325" lon="-0.04868">
        <time>2021-10-17T13:42:13.488Z</time>
      </trkpt>
      <trkpt lat="49.31329" lon="-0.04858">
        <time>2021-10-17T13:42:18.478Z</time>
      </trkpt>
      <trkpt lat="49.31331" lon="-0.04849">
        <time>2021-10-17T13:42:22.494Z</time>
      </trkpt>
      <trkpt lat="49.31335" lon="-0.04839">
        <time>2021-10-17T13:42:27.495Z</time>
      </trkpt>
      <trkpt lat="49.31339" lon="-0.04828">
        <time>2021-10-17T13:42:32.484Z</time>
      </trkpt>
      <trkpt lat="49.31343" lon="-0.04817">
        <time>2021-10-17T13:42:37.491Z</time>
      </trkpt>
      <trkpt lat="49.31347" lon="-0.04807">
        <time>2021-10-17T13:42:42.480Z</time>
      </trkpt>
      <trkpt lat="49.3135" lon="-0.04797">
        <time>2021-10-17T13:42:47.486Z</time>
      </trkpt>
      <trkpt lat="49.31354" lon="-0.04785">
        <time>2021-10-17T13:42:52.480Z</time>
      </trkpt>
      <trkpt lat="49.31356" lon="-0.04777">
        <time>2021-10-17T13:42:56.490Z</time>
      </trkpt>
      <trkpt lat="49.3136" lon="-0.04767">
        <time>2021-10-17T13:43:01.483Z</time>
      </trkpt>
      <trkpt lat="49.31363" lon="-0.04756">
        <time>2021-10-17T13:43:06.479Z</time>
      </trkpt>
      <trkpt lat="49.31365" lon="-0.04747">
        <time>2021-10-17T13:43:10.485Z</time>
      </trkpt>
      <trkpt lat="49.31368" lon="-0.04736">
        <time>2021-10-17T13:43:15.488Z</time>
      </trkpt>
      <trkpt lat="49.31372" lon="-0.04725">
        <time>2021-10-17T13:43:20.486Z</time>
      </trkpt>
      <trkpt lat="49.31375" lon="-0.04714">
        <time>2021-10-17T13:43:25.487Z</time>
      </trkpt>
      <trkpt lat="49.31378" lon="-0.04703">
        <time>2021-10-17T13:43:30.486Z</time>
      </trkpt>
      <trkpt lat="49.31382" lon="-0.04693">
        <time>2021-10-17T13:43:35.485Z</time>
      </trkpt>
      <trkpt lat="49.31386" lon="-0.04683">
        <time>2021-10-17T13:43:40.484Z</time>
      </trkpt>
      <trkpt lat="49.31389" lon="-0.04675">
        <time>2021-10-17T13:43:44.492Z</time>
      </trkpt>
      <trkpt lat="49.31393" lon="-0.04664">
        <time>2021-10-17T13:43:49.477Z</time>
      </trkpt>
      <trkpt lat="49.31397" lon="-0.04659">
        <time>2021-10-17T13:43:53.484Z</time>
      </trkpt>
      <trkpt lat="49.31396" lon="-0.04652">
        <time>2021-10-17T13:43:58.474Z</time>
      </trkpt>
      <trkpt lat="49.31404" lon="-0.04636">
        <time>2021-10-17T13:44:42.488Z</time>
      </trkpt>
      <trkpt lat="49.31405" lon="-0.04635">
        <time>2021-10-17T13:44:47.483Z</time>
      </trkpt>
      <trkpt lat="49.31406" lon="-0.04632">
        <time>2021-10-17T13:44:51.489Z</time>
      </trkpt>
      <trkpt lat="49.31409" lon="-0.04623">
        <time>2021-10-17T13:44:56.496Z</time>
      </trkpt>
      <trkpt lat="49.3141" lon="-0.04617">
        <time>2021-10-17T13:45:00.491Z</time>
      </trkpt>
      <trkpt lat="49.31413" lon="-0.04608">
        <time>2021-10-17T13:45:05.483Z</time>
      </trkpt>
      <trkpt lat="49.31415" lon="-0.046">
        <time>2021-10-17T13:45:10.495Z</time>
      </trkpt>
      <trkpt lat="49.31418" lon="-0.04594">
        <time>2021-10-17T13:45:15.473Z</time>
      </trkpt>
      <trkpt lat="49.3142" lon="-0.04587">
        <time>2021-10-17T13:45:20.488Z</time>
      </trkpt>
      <trkpt lat="49.31423" lon="-0.04579">
        <time>2021-10-17T13:45:25.480Z</time>
      </trkpt>
      <trkpt lat="49.31426" lon="-0.0457">
        <time>2021-10-17T13:45:30.478Z</time>
      </trkpt>
      <trkpt lat="49.31429" lon="-0.04561">
        <time>2021-10-17T13:45:35.482Z</time>
      </trkpt>
      <trkpt lat="49.31433" lon="-0.04553">
        <time>2021-10-17T13:45:40.479Z</time>
      </trkpt>
      <trkpt lat="49.31435" lon="-0.04545">
        <time>2021-10-17T13:45:44.491Z</time>
      </trkpt>
      <trkpt lat="49.31439" lon="-0.04534">
        <time>2021-10-17T13:45:49.488Z</time>
      </trkpt>
      <trkpt lat="49.31442" lon="-0.04525">
        <time>2021-10-17T13:45:54.483Z</time>
      </trkpt>
      <trkpt lat="49.31446" lon="-0.04516">
        <time>2021-10-17T13:45:59.481Z</time>
      </trkpt>
      <trkpt lat="49.31448" lon="-0.04508">
        <time>2021-10-17T13:46:03.488Z</time>
      </trkpt>
      <trkpt lat="49.31448" lon="-0.04498">
        <time>2021-10-17T13:46:07.498Z</time>
      </trkpt>
      <trkpt lat="49.31452" lon="-0.0449">
        <time>2021-10-17T13:46:11.489Z</time>
      </trkpt>
      <trkpt lat="49.31455" lon="-0.0448">
        <time>2021-10-17T13:46:16.488Z</time>
      </trkpt>
      <trkpt lat="49.31458" lon="-0.0447">
        <time>2021-10-17T13:46:21.485Z</time>
      </trkpt>
      <trkpt lat="49.31461" lon="-0.04461">
        <time>2021-10-17T13:46:26.471Z</time>
      </trkpt>
      <trkpt lat="49.31464" lon="-0.04453">
        <time>2021-10-17T13:46:30.475Z</time>
      </trkpt>
      <trkpt lat="49.31467" lon="-0.04444">
        <time>2021-10-17T13:46:35.488Z</time>
      </trkpt>
      <trkpt lat="49.3147" lon="-0.04434">
        <time>2021-10-17T13:46:40.476Z</time>
      </trkpt>
      <trkpt lat="49.31473" lon="-0.04424">
        <time>2021-10-17T13:46:45.476Z</time>
      </trkpt>
      <trkpt lat="49.31476" lon="-0.04413">
        <time>2021-10-17T13:46:50.486Z</time>
      </trkpt>
      <trkpt lat="49.3148" lon="-0.04403">
        <time>2021-10-17T13:46:55.479Z</time>
      </trkpt>
      <trkpt lat="49.31483" lon="-0.04392">
        <time>2021-10-17T13:47:00.469Z</time>
      </trkpt>
      <trkpt lat="49.31485" lon="-0.04383">
        <time>2021-10-17T13:47:04.476Z</time>
      </trkpt>
      <trkpt lat="49.31488" lon="-0.04374">
        <time>2021-10-17T13:47:08.493Z</time>
      </trkpt>
      <trkpt lat="49.31491" lon="-0.04364">
        <time>2021-10-17T13:47:13.479Z</time>
      </trkpt>
      <trkpt lat="49.31494" lon="-0.04353">
        <time>2021-10-17T13:47:18.478Z</time>
      </trkpt>
      <trkpt lat="49.31497" lon="-0.04345">
        <time>2021-10-17T13:47:22.482Z</time>
      </trkpt>
      <trkpt lat="49.31499" lon="-0.04336">
        <time>2021-10-17T13:47:26.488Z</time>
      </trkpt>
      <trkpt lat="49.31502" lon="-0.04326">
        <time>2021-10-17T13:47:31.472Z</time>
      </trkpt>
      <trkpt lat="49.31505" lon="-0.04319">
        <time>2021-10-17T13:47:35.476Z</time>
      </trkpt>
      <trkpt lat="49.31508" lon="-0.04309">
        <time>2021-10-17T13:47:40.470Z</time>
      </trkpt>
      <trkpt lat="49.31512" lon="-0.04298">
        <time>2021-10-17T13:47:45.477Z</time>
      </trkpt>
      <trkpt lat="49.31515" lon="-0.04288">
        <time>2021-10-17T13:47:50.481Z</time>
      </trkpt>
      <trkpt lat="49.31518" lon="-0.04279">
        <time>2021-10-17T13:47:54.494Z</time>
      </trkpt>
      <trkpt lat="49.31522" lon="-0.04268">
        <time>2021-10-17T13:47:59.477Z</time>
      </trkpt>
      <trkpt lat="49.31525" lon="-0.04258">
        <time>2021-10-17T13:48:04.481Z</time>
      </trkpt>
      <trkpt lat="49.31528" lon="-0.04249">
        <time>2021-10-17T13:48:08.486Z</time>
      </trkpt>
      <trkpt lat="49.31531" lon="-0.04239">
        <time>2021-10-17T13:48:13.482Z</time>
      </trkpt>
      <trkpt lat="49.31535" lon="-0.04228">
        <time>2021-10-17T13:48:18.470Z</time>
      </trkpt>
      <trkpt lat="49.31537" lon="-0.0422">
        <time>2021-10-17T13:48:22.482Z</time>
      </trkpt>
      <trkpt lat="49.3154" lon="-0.04209">
        <time>2021-10-17T13:48:27.473Z</time>
      </trkpt>
      <trkpt lat="49.31543" lon="-0.042">
        <time>2021-10-17T13:48:31.484Z</time>
      </trkpt>
      <trkpt lat="49.31547" lon="-0.0419">
        <time>2021-10-17T13:48:36.487Z</time>
      </trkpt>
      <trkpt lat="49.31551" lon="-0.04179">
        <time>2021-10-17T13:48:41.484Z</time>
      </trkpt>
      <trkpt lat="49.31554" lon="-0.0417">
        <time>2021-10-17T13:48:45.488Z</time>
      </trkpt>
      <trkpt lat="49.31558" lon="-0.04158">
        <time>2021-10-17T13:48:50.477Z</time>
      </trkpt>
      <trkpt lat="49.31561" lon="-0.04149">
        <time>2021-10-17T13:48:54.487Z</time>
      </trkpt>
      <trkpt lat="49.31565" lon="-0.04138">
        <time>2021-10-17T13:48:59.483Z</time>
      </trkpt>
      <trkpt lat="49.31568" lon="-0.04128">
        <time>2021-10-17T13:49:03.486Z</time>
      </trkpt>
      <trkpt lat="49.31573" lon="-0.04117">
        <time>2021-10-17T13:49:08.481Z</time>
      </trkpt>
      <trkpt lat="49.31576" lon="-0.04108">
        <time>2021-10-17T13:49:12.489Z</time>
      </trkpt>
      <trkpt lat="49.3158" lon="-0.041">
        <time>2021-10-17T13:49:16.490Z</time>
      </trkpt>
      <trkpt lat="49.31583" lon="-0.04088">
        <time>2021-10-17T13:49:21.482Z</time>
      </trkpt>
      <trkpt lat="49.31585" lon="-0.0408">
        <time>2021-10-17T13:49:25.489Z</time>
      </trkpt>
      <trkpt lat="49.31589" lon="-0.04069">
        <time>2021-10-17T13:49:30.496Z</time>
      </trkpt>
      <trkpt lat="49.31592" lon="-0.04057">
        <time>2021-10-17T13:49:35.492Z</time>
      </trkpt>
      <trkpt lat="49.31596" lon="-0.04046">
        <time>2021-10-17T13:49:40.481Z</time>
      </trkpt>
      <trkpt lat="49.316" lon="-0.04035">
        <time>2021-10-17T13:49:45.467Z</time>
      </trkpt>
      <trkpt lat="49.31604" lon="-0.04026">
        <time>2021-10-17T13:49:49.477Z</time>
      </trkpt>
      <trkpt lat="49.31607" lon="-0.04018">
        <time>2021-10-17T13:49:53.480Z</time>
      </trkpt>
      <trkpt lat="49.31612" lon="-0.04007">
        <time>2021-10-17T13:49:58.473Z</time>
      </trkpt>
      <trkpt lat="49.31615" lon="-0.03999">
        <time>2021-10-17T13:50:02.484Z</time>
      </trkpt>
      <trkpt lat="49.31619" lon="-0.03988">
        <time>2021-10-17T13:50:07.488Z</time>
      </trkpt>
      <trkpt lat="49.31622" lon="-0.03976">
        <time>2021-10-17T13:50:12.481Z</time>
      </trkpt>
      <trkpt lat="49.31625" lon="-0.03967">
        <time>2021-10-17T13:50:16.484Z</time>
      </trkpt>
      <trkpt lat="49.31628" lon="-0.03956">
        <time>2021-10-17T13:50:21.473Z</time>
      </trkpt>
      <trkpt lat="49.31631" lon="-0.03945">
        <time>2021-10-17T13:50:26.479Z</time>
      </trkpt>
      <trkpt lat="49.31634" lon="-0.03937">
        <time>2021-10-17T13:50:30.484Z</time>
      </trkpt>
      <trkpt lat="49.31637" lon="-0.03925">
        <time>2021-10-17T13:50:35.485Z</time>
      </trkpt>
      <trkpt lat="49.31641" lon="-0.03915">
        <time>2021-10-17T13:50:40.475Z</time>
      </trkpt>
      <trkpt lat="49.31644" lon="-0.03906">
        <time>2021-10-17T13:50:44.485Z</time>
      </trkpt>
      <trkpt lat="49.31648" lon="-0.03895">
        <time>2021-10-17T13:50:49.481Z</time>
      </trkpt>
      <trkpt lat="49.31652" lon="-0.03885">
        <time>2021-10-17T13:50:54.483Z</time>
      </trkpt>
      <trkpt lat="49.31655" lon="-0.03874">
        <time>2021-10-17T13:50:59.483Z</time>
      </trkpt>
      <trkpt lat="49.31658" lon="-0.03863">
        <time>2021-10-17T13:51:04.492Z</time>
      </trkpt>
      <trkpt lat="49.31661" lon="-0.03854">
        <time>2021-10-17T13:51:08.481Z</time>
      </trkpt>
      <trkpt lat="49.31664" lon="-0.03843">
        <time>2021-10-17T13:51:13.489Z</time>
      </trkpt>
      <trkpt lat="49.31667" lon="-0.03834">
        <time>2021-10-17T13:51:17.484Z</time>
      </trkpt>
      <trkpt lat="49.3167" lon="-0.03823">
        <time>2021-10-17T13:51:22.488Z</time>
      </trkpt>
      <trkpt lat="49.31674" lon="-0.03812">
        <time>2021-10-17T13:51:27.482Z</time>
      </trkpt>
      <trkpt lat="49.31677" lon="-0.03805">
        <time>2021-10-17T13:51:31.490Z</time>
      </trkpt>
      <trkpt lat="49.3168" lon="-0.03795">
        <time>2021-10-17T13:51:36.485Z</time>
      </trkpt>
      <trkpt lat="49.31683" lon="-0.03785">
        <time>2021-10-17T13:51:41.476Z</time>
      </trkpt>
      <trkpt lat="49.31686" lon="-0.03776">
        <time>2021-10-17T13:51:45.492Z</time>
      </trkpt>
      <trkpt lat="49.3169" lon="-0.03764">
        <time>2021-10-17T13:51:50.493Z</time>
      </trkpt>
      <trkpt lat="49.31693" lon="-0.03753">
        <time>2021-10-17T13:51:55.496Z</time>
      </trkpt>
      <trkpt lat="49.31697" lon="-0.03742">
        <time>2021-10-17T13:52:00.492Z</time>
      </trkpt>
      <trkpt lat="49.31701" lon="-0.03732">
        <time>2021-10-17T13:52:05.478Z</time>
      </trkpt>
      <trkpt lat="49.31705" lon="-0.03721">
        <time>2021-10-17T13:52:10.471Z</time>
      </trkpt>
      <trkpt lat="49.31707" lon="-0.03713">
        <time>2021-10-17T13:52:14.481Z</time>
      </trkpt>
      <trkpt lat="49.31712" lon="-0.03702">
        <time>2021-10-17T13:52:19.493Z</time>
      </trkpt>
      <trkpt lat="49.31715" lon="-0.03692">
        <time>2021-10-17T13:52:24.478Z</time>
      </trkpt>
      <trkpt lat="49.31717" lon="-0.0368">
        <time>2021-10-17T13:52:29.475Z</time>
      </trkpt>
      <trkpt lat="49.3172" lon="-0.0367">
        <time>2021-10-17T13:52:34.468Z</time>
      </trkpt>
      <trkpt lat="49.31724" lon="-0.03663">
        <time>2021-10-17T13:52:38.489Z</time>
      </trkpt>
      <trkpt lat="49.31727" lon="-0.03654">
        <time>2021-10-17T13:52:43.469Z</time>
      </trkpt>
      <trkpt lat="49.31728" lon="-0.03644">
        <time>2021-10-17T13:52:48.493Z</time>
      </trkpt>
      <trkpt lat="49.31731" lon="-0.03634">
        <time>2021-10-17T13:52:53.481Z</time>
      </trkpt>
      <trkpt lat="49.31735" lon="-0.03624">
        <time>2021-10-17T13:52:58.481Z</time>
      </trkpt>
      <trkpt lat="49.31737" lon="-0.03615">
        <time>2021-10-17T13:53:02.487Z</time>
      </trkpt>
      <trkpt lat="49.3174" lon="-0.03604">
        <time>2021-10-17T13:53:07.486Z</time>
      </trkpt>
      <trkpt lat="49.31742" lon="-0.03593">
        <time>2021-10-17T13:53:12.478Z</time>
      </trkpt>
      <trkpt lat="49.31739" lon="-0.03586">
        <time>2021-10-17T13:53:16.488Z</time>
      </trkpt>
      <trkpt lat="49.31735" lon="-0.0359">
        <time>2021-10-17T13:53:21.475Z</time>
      </trkpt>
      <trkpt lat="49.31735" lon="-0.03586">
        <time>2021-10-17T13:53:25.482Z</time>
      </trkpt>
      <trkpt lat="49.31736" lon="-0.03583">
        <time>2021-10-17T13:53:30.485Z</time>
      </trkpt>
      <trkpt lat="49.31742" lon="-0.03578">
        <time>2021-10-17T13:53:35.471Z</time>
      </trkpt>
      <trkpt lat="49.31747" lon="-0.0357">
        <time>2021-10-17T13:53:40.490Z</time>
      </trkpt>
      <trkpt lat="49.31752" lon="-0.0356">
        <time>2021-10-17T13:53:45.473Z</time>
      </trkpt>
      <trkpt lat="49.31752" lon="-0.03549">
        <time>2021-10-17T13:53:49.489Z</time>
      </trkpt>
      <trkpt lat="49.31753" lon="-0.03537">
        <time>2021-10-17T13:53:54.478Z</time>
      </trkpt>
      <trkpt lat="49.31752" lon="-0.03528">
        <time>2021-10-17T13:53:58.497Z</time>
      </trkpt>
      <trkpt lat="49.31748" lon="-0.03517">
        <time>2021-10-17T13:54:03.478Z</time>
      </trkpt>
      <trkpt lat="49.31746" lon="-0.03507">
        <time>2021-10-17T13:54:07.489Z</time>
      </trkpt>
      <trkpt lat="49.31744" lon="-0.03495">
        <time>2021-10-17T13:54:12.484Z</time>
      </trkpt>
      <trkpt lat="49.31741" lon="-0.03484">
        <time>2021-10-17T13:54:17.484Z</time>
      </trkpt>
      <trkpt lat="49.31739" lon="-0.03475">
        <time>2021-10-17T13:54:21.492Z</time>
      </trkpt>
      <trkpt lat="49.31738" lon="-0.03463">
        <time>2021-10-17T13:54:26.484Z</time>
      </trkpt>
      <trkpt lat="49.31737" lon="-0.03452">
        <time>2021-10-17T13:54:31.485Z</time>
      </trkpt>
      <trkpt lat="49.31737" lon="-0.03442">
        <time>2021-10-17T13:54:35.495Z</time>
      </trkpt>
      <trkpt lat="49.31738" lon="-0.0343">
        <time>2021-10-17T13:54:40.476Z</time>
      </trkpt>
      <trkpt lat="49.31741" lon="-0.03418">
        <time>2021-10-17T13:54:45.496Z</time>
      </trkpt>
      <trkpt lat="49.31744" lon="-0.03406">
        <time>2021-10-17T13:54:50.492Z</time>
      </trkpt>
      <trkpt lat="49.31746" lon="-0.03394">
        <time>2021-10-17T13:54:55.481Z</time>
      </trkpt>
      <trkpt lat="49.31747" lon="-0.03384">
        <time>2021-10-17T13:54:59.483Z</time>
      </trkpt>
      <trkpt lat="49.31749" lon="-0.03375">
        <time>2021-10-17T13:55:03.488Z</time>
      </trkpt>
      <trkpt lat="49.31749" lon="-0.03362">
        <time>2021-10-17T13:55:08.489Z</time>
      </trkpt>
      <trkpt lat="49.31749" lon="-0.03349">
        <time>2021-10-17T13:55:13.481Z</time>
      </trkpt>
      <trkpt lat="49.31748" lon="-0.03339">
        <time>2021-10-17T13:55:17.484Z</time>
      </trkpt>
      <trkpt lat="49.31747" lon="-0.03326">
        <time>2021-10-17T13:55:22.486Z</time>
      </trkpt>
      <trkpt lat="49.31746" lon="-0.03315">
        <time>2021-10-17T13:55:27.493Z</time>
      </trkpt>
      <trkpt lat="49.31746" lon="-0.03302">
        <time>2021-10-17T13:55:32.499Z</time>
      </trkpt>
      <trkpt lat="49.31748" lon="-0.03293">
        <time>2021-10-17T13:55:36.489Z</time>
      </trkpt>
      <trkpt lat="49.31756" lon="-0.03293">
        <time>2021-10-17T13:55:41.497Z</time>
      </trkpt>
      <trkpt lat="49.31754" lon="-0.03279">
        <time>2021-10-17T13:55:46.470Z</time>
      </trkpt>
      <trkpt lat="49.31758" lon="-0.03267">
        <time>2021-10-17T13:55:51.468Z</time>
      </trkpt>
      <trkpt lat="49.31759" lon="-0.03254">
        <time>2021-10-17T13:55:56.490Z</time>
      </trkpt>
      <trkpt lat="49.31762" lon="-0.03245">
        <time>2021-10-17T13:56:00.486Z</time>
      </trkpt>
      <trkpt lat="49.31765" lon="-0.03246">
        <time>2021-10-17T13:56:05.480Z</time>
      </trkpt>
      <trkpt lat="49.31767" lon="-0.03245">
        <time>2021-10-17T13:56:10.480Z</time>
      </trkpt>
      <trkpt lat="49.3177" lon="-0.0324">
        <time>2021-10-17T13:56:15.472Z</time>
      </trkpt>
      <trkpt lat="49.31774" lon="-0.03232">
        <time>2021-10-17T13:56:19.478Z</time>
      </trkpt>
      <trkpt lat="49.31779" lon="-0.03221">
        <time>2021-10-17T13:56:24.475Z</time>
      </trkpt>
      <trkpt lat="49.31783" lon="-0.03211">
        <time>2021-10-17T13:56:28.487Z</time>
      </trkpt>
      <trkpt lat="49.31788" lon="-0.03202">
        <time>2021-10-17T13:56:33.470Z</time>
      </trkpt>
      <trkpt lat="49.31792" lon="-0.03194">
        <time>2021-10-17T13:56:37.479Z</time>
      </trkpt>
      <trkpt lat="49.31795" lon="-0.03182">
        <time>2021-10-17T13:56:42.479Z</time>
      </trkpt>
      <trkpt lat="49.31797" lon="-0.03173">
        <time>2021-10-17T13:56:46.487Z</time>
      </trkpt>
      <trkpt lat="49.318" lon="-0.03161">
        <time>2021-10-17T13:56:51.480Z</time>
      </trkpt>
      <trkpt lat="49.31802" lon="-0.03148">
        <time>2021-10-17T13:56:56.471Z</time>
      </trkpt>
      <trkpt lat="49.31804" lon="-0.03139">
        <time>2021-10-17T13:57:00.488Z</time>
      </trkpt>
      <trkpt lat="49.31806" lon="-0.03127">
        <time>2021-10-17T13:57:05.474Z</time>
      </trkpt>
      <trkpt lat="49.31808" lon="-0.03118">
        <time>2021-10-17T13:57:09.487Z</time>
      </trkpt>
      <trkpt lat="49.31811" lon="-0.03106">
        <time>2021-10-17T13:57:14.483Z</time>
      </trkpt>
      <trkpt lat="49.31813" lon="-0.03095">
        <time>2021-10-17T13:57:19.486Z</time>
      </trkpt>
      <trkpt lat="49.31815" lon="-0.03084">
        <time>2021-10-17T13:57:24.485Z</time>
      </trkpt>
      <trkpt lat="49.31817" lon="-0.03072">
        <time>2021-10-17T13:57:29.480Z</time>
      </trkpt>
      <trkpt lat="49.3182" lon="-0.0306">
        <time>2021-10-17T13:57:34.475Z</time>
      </trkpt>
      <trkpt lat="49.31822" lon="-0.0305">
        <time>2021-10-17T13:57:38.485Z</time>
      </trkpt>
      <trkpt lat="49.31825" lon="-0.03038">
        <time>2021-10-17T13:57:43.477Z</time>
      </trkpt>
      <trkpt lat="49.31827" lon="-0.03026">
        <time>2021-10-17T13:57:48.475Z</time>
      </trkpt>
      <trkpt lat="49.31829" lon="-0.03017">
        <time>2021-10-17T13:57:52.482Z</time>
      </trkpt>
      <trkpt lat="49.31831" lon="-0.03008">
        <time>2021-10-17T13:57:56.472Z</time>
      </trkpt>
      <trkpt lat="49.31833" lon="-0.02996">
        <time>2021-10-17T13:58:01.482Z</time>
      </trkpt>
      <trkpt lat="49.31835" lon="-0.02987">
        <time>2021-10-17T13:58:05.482Z</time>
      </trkpt>
      <trkpt lat="49.31838" lon="-0.02975">
        <time>2021-10-17T13:58:10.483Z</time>
      </trkpt>
      <trkpt lat="49.3184" lon="-0.02965">
        <time>2021-10-17T13:58:15.479Z</time>
      </trkpt>
      <trkpt lat="49.31844" lon="-0.02956">
        <time>2021-10-17T13:58:19.491Z</time>
      </trkpt>
      <trkpt lat="49.31847" lon="-0.02945">
        <time>2021-10-17T13:58:24.485Z</time>
      </trkpt>
      <trkpt lat="49.31848" lon="-0.02934">
        <time>2021-10-17T13:58:29.491Z</time>
      </trkpt>
      <trkpt lat="49.31851" lon="-0.02926">
        <time>2021-10-17T13:58:33.497Z</time>
      </trkpt>
      <trkpt lat="49.31854" lon="-0.02916">
        <ele>1</ele>
        <time>2021-10-17T13:58:38.476Z</time>
      </trkpt>
      <trkpt lat="49.31856" lon="-0.02907">
        <ele>1</ele>
        <time>2021-10-17T13:58:42.482Z</time>
      </trkpt>
      <trkpt lat="49.31859" lon="-0.02898">
        <ele>1</ele>
        <time>2021-10-17T13:58:46.481Z</time>
      </trkpt>
      <trkpt lat="49.31862" lon="-0.02887">
        <time>2021-10-17T13:58:51.485Z</time>
      </trkpt>
      <trkpt lat="49.31867" lon="-0.02878">
        <time>2021-10-17T13:58:56.480Z</time>
      </trkpt>
      <trkpt lat="49.31871" lon="-0.02871">
        <time>2021-10-17T13:59:00.483Z</time>
      </trkpt>
      <trkpt lat="49.31876" lon="-0.02861">
        <time>2021-10-17T13:59:05.486Z</time>
      </trkpt>
      <trkpt lat="49.31879" lon="-0.0285">
        <time>2021-10-17T13:59:10.475Z</time>
      </trkpt>
      <trkpt lat="49.31881" lon="-0.02841">
        <time>2021-10-17T13:59:14.485Z</time>
      </trkpt>
      <trkpt lat="49.31884" lon="-0.0283">
        <time>2021-10-17T13:59:19.469Z</time>
      </trkpt>
      <trkpt lat="49.31887" lon="-0.02822">
        <time>2021-10-17T13:59:23.476Z</time>
      </trkpt>
      <trkpt lat="49.31891" lon="-0.02815">
        <time>2021-10-17T13:59:27.484Z</time>
      </trkpt>
      <trkpt lat="49.31896" lon="-0.02806">
        <time>2021-10-17T13:59:32.474Z</time>
      </trkpt>
      <trkpt lat="49.31901" lon="-0.02797">
        <time>2021-10-17T13:59:37.473Z</time>
      </trkpt>
      <trkpt lat="49.31906" lon="-0.02787">
        <time>2021-10-17T13:59:42.466Z</time>
      </trkpt>
      <trkpt lat="49.31909" lon="-0.02778">
        <time>2021-10-17T13:59:46.480Z</time>
      </trkpt>
      <trkpt lat="49.31913" lon="-0.02768">
        <time>2021-10-17T13:59:51.479Z</time>
      </trkpt>
      <trkpt lat="49.31916" lon="-0.02756">
        <time>2021-10-17T13:59:56.477Z</time>
      </trkpt>
      <trkpt lat="49.3192" lon="-0.02746">
        <time>2021-10-17T14:00:01.485Z</time>
      </trkpt>
      <trkpt lat="49.31924" lon="-0.02735">
        <time>2021-10-17T14:00:06.472Z</time>
      </trkpt>
      <trkpt lat="49.31926" lon="-0.02726">
        <time>2021-10-17T14:00:10.476Z</time>
      </trkpt>
      <trkpt lat="49.31928" lon="-0.02717">
        <time>2021-10-17T14:00:14.483Z</time>
      </trkpt>
      <trkpt lat="49.31932" lon="-0.02706">
        <time>2021-10-17T14:00:19.476Z</time>
      </trkpt>
      <trkpt lat="49.31934" lon="-0.02695">
        <time>2021-10-17T14:00:24.484Z</time>
      </trkpt>
      <trkpt lat="49.31937" lon="-0.02684">
        <time>2021-10-17T14:00:29.470Z</time>
      </trkpt>
      <trkpt lat="49.31938" lon="-0.02674">
        <time>2021-10-17T14:00:33.479Z</time>
      </trkpt>
      <trkpt lat="49.31939" lon="-0.02665">
        <time>2021-10-17T14:00:37.496Z</time>
      </trkpt>
      <trkpt lat="49.31943" lon="-0.02655">
        <time>2021-10-17T14:00:42.479Z</time>
      </trkpt>
      <trkpt lat="49.31948" lon="-0.02646">
        <time>2021-10-17T14:00:47.480Z</time>
      </trkpt>
      <trkpt lat="49.31949" lon="-0.02642">
        <time>2021-10-17T14:00:52.470Z</time>
      </trkpt>
      <trkpt lat="49.31949" lon="-0.02637">
        <time>2021-10-17T14:00:56.470Z</time>
      </trkpt>
      <trkpt lat="49.31948" lon="-0.02633">
        <time>2021-10-17T14:01:01.477Z</time>
      </trkpt>
      <trkpt lat="49.31949" lon="-0.02628">
        <time>2021-10-17T14:01:06.471Z</time>
      </trkpt>
      <trkpt lat="49.31951" lon="-0.02621">
        <time>2021-10-17T14:01:11.471Z</time>
      </trkpt>
      <trkpt lat="49.3195" lon="-0.02619">
        <time>2021-10-17T14:01:15.483Z</time>
      </trkpt>
      <trkpt lat="49.31952" lon="-0.02617">
        <time>2021-10-17T14:01:35.472Z</time>
      </trkpt>
      <trkpt lat="49.31952" lon="-0.02617">
        <time>2021-10-17T14:01:39.479Z</time>
      </trkpt>
      <trkpt lat="49.31953" lon="-0.02614">
        <time>2021-10-17T14:01:44.476Z</time>
      </trkpt>
      <trkpt lat="49.31955" lon="-0.02607">
        <time>2021-10-17T14:01:48.482Z</time>
      </trkpt>
      <trkpt lat="49.31958" lon="-0.026">
        <time>2021-10-17T14:01:52.490Z</time>
      </trkpt>
      <trkpt lat="49.31961" lon="-0.02591">
        <time>2021-10-17T14:01:57.472Z</time>
      </trkpt>
      <trkpt lat="49.31964" lon="-0.02582">
        <time>2021-10-17T14:02:01.479Z</time>
      </trkpt>
      <trkpt lat="49.31968" lon="-0.02572">
        <time>2021-10-17T14:02:06.484Z</time>
      </trkpt>
      <trkpt lat="49.31971" lon="-0.02561">
        <time>2021-10-17T14:02:11.489Z</time>
      </trkpt>
      <trkpt lat="49.31974" lon="-0.0255">
        <time>2021-10-17T14:02:16.489Z</time>
      </trkpt>
      <trkpt lat="49.31978" lon="-0.0254">
        <time>2021-10-17T14:02:21.479Z</time>
      </trkpt>
      <trkpt lat="49.31982" lon="-0.02528">
        <time>2021-10-17T14:02:26.485Z</time>
      </trkpt>
      <trkpt lat="49.31986" lon="-0.02518">
        <time>2021-10-17T14:02:31.474Z</time>
      </trkpt>
      <trkpt lat="49.3199" lon="-0.02506">
        <time>2021-10-17T14:02:36.484Z</time>
      </trkpt>
      <trkpt lat="49.31994" lon="-0.02495">
        <time>2021-10-17T14:02:41.486Z</time>
      </trkpt>
      <trkpt lat="49.31997" lon="-0.02484">
        <time>2021-10-17T14:02:46.465Z</time>
      </trkpt>
      <trkpt lat="49.32" lon="-0.02475">
        <time>2021-10-17T14:02:50.474Z</time>
      </trkpt>
      <trkpt lat="49.32004" lon="-0.02466">
        <time>2021-10-17T14:02:54.483Z</time>
      </trkpt>
      <trkpt lat="49.32008" lon="-0.02456">
        <time>2021-10-17T14:02:59.475Z</time>
      </trkpt>
      <trkpt lat="49.32011" lon="-0.02447">
        <time>2021-10-17T14:03:03.480Z</time>
      </trkpt>
      <trkpt lat="49.32015" lon="-0.02435">
        <time>2021-10-17T14:03:08.471Z</time>
      </trkpt>
      <trkpt lat="49.32018" lon="-0.02426">
        <time>2021-10-17T14:03:12.484Z</time>
      </trkpt>
      <trkpt lat="49.32022" lon="-0.02415">
        <time>2021-10-17T14:03:17.472Z</time>
      </trkpt>
      <trkpt lat="49.32025" lon="-0.02406">
        <time>2021-10-17T14:03:21.484Z</time>
      </trkpt>
      <trkpt lat="49.32028" lon="-0.02395">
        <time>2021-10-17T14:03:26.481Z</time>
      </trkpt>
      <trkpt lat="49.32031" lon="-0.02384">
        <time>2021-10-17T14:03:31.482Z</time>
      </trkpt>
      <trkpt lat="49.32035" lon="-0.02372">
        <time>2021-10-17T14:03:36.481Z</time>
      </trkpt>
      <trkpt lat="49.32038" lon="-0.02363">
        <time>2021-10-17T14:03:40.494Z</time>
      </trkpt>
      <trkpt lat="49.32043" lon="-0.02352">
        <time>2021-10-17T14:03:45.473Z</time>
      </trkpt>
      <trkpt lat="49.32048" lon="-0.02341">
        <time>2021-10-17T14:03:50.484Z</time>
      </trkpt>
      <trkpt lat="49.32051" lon="-0.0233">
        <time>2021-10-17T14:03:55.485Z</time>
      </trkpt>
      <trkpt lat="49.32055" lon="-0.02319">
        <time>2021-10-17T14:04:00.481Z</time>
      </trkpt>
      <trkpt lat="49.32059" lon="-0.02307">
        <time>2021-10-17T14:04:05.483Z</time>
      </trkpt>
      <trkpt lat="49.32063" lon="-0.02296">
        <time>2021-10-17T14:04:10.480Z</time>
      </trkpt>
      <trkpt lat="49.32066" lon="-0.02288">
        <time>2021-10-17T14:04:14.484Z</time>
      </trkpt>
      <trkpt lat="49.3207" lon="-0.02276">
        <time>2021-10-17T14:04:19.490Z</time>
      </trkpt>
      <trkpt lat="49.32073" lon="-0.02265">
        <time>2021-10-17T14:04:24.484Z</time>
      </trkpt>
      <trkpt lat="49.32076" lon="-0.02256">
        <time>2021-10-17T14:04:28.490Z</time>
      </trkpt>
      <trkpt lat="49.32078" lon="-0.02246">
        <time>2021-10-17T14:04:32.483Z</time>
      </trkpt>
      <trkpt lat="49.32081" lon="-0.02235">
        <time>2021-10-17T14:04:37.488Z</time>
      </trkpt>
      <trkpt lat="49.32085" lon="-0.02223">
        <time>2021-10-17T14:04:42.472Z</time>
      </trkpt>
      <trkpt lat="49.32088" lon="-0.02214">
        <time>2021-10-17T14:04:46.480Z</time>
      </trkpt>
      <trkpt lat="49.3209" lon="-0.02205">
        <time>2021-10-17T14:04:50.487Z</time>
      </trkpt>
      <trkpt lat="49.32093" lon="-0.02193">
        <time>2021-10-17T14:04:55.471Z</time>
      </trkpt>
      <trkpt lat="49.32096" lon="-0.02184">
        <time>2021-10-17T14:04:59.492Z</time>
      </trkpt>
      <trkpt lat="49.32099" lon="-0.02172">
        <time>2021-10-17T14:05:04.477Z</time>
      </trkpt>
      <trkpt lat="49.32104" lon="-0.02161">
        <time>2021-10-17T14:05:09.499Z</time>
      </trkpt>
      <trkpt lat="49.32108" lon="-0.02151">
        <time>2021-10-17T14:05:14.475Z</time>
      </trkpt>
      <trkpt lat="49.32112" lon="-0.0214">
        <time>2021-10-17T14:05:19.476Z</time>
      </trkpt>
      <trkpt lat="49.32115" lon="-0.02132">
        <time>2021-10-17T14:05:23.482Z</time>
      </trkpt>
      <trkpt lat="49.32117" lon="-0.02123">
        <time>2021-10-17T14:05:27.484Z</time>
      </trkpt>
      <trkpt lat="49.32121" lon="-0.02111">
        <time>2021-10-17T14:05:32.487Z</time>
      </trkpt>
      <trkpt lat="49.32125" lon="-0.021">
        <time>2021-10-17T14:05:37.477Z</time>
      </trkpt>
      <trkpt lat="49.32128" lon="-0.02089">
        <time>2021-10-17T14:05:42.473Z</time>
      </trkpt>
      <trkpt lat="49.3213" lon="-0.0208">
        <time>2021-10-17T14:05:46.487Z</time>
      </trkpt>
      <trkpt lat="49.32132" lon="-0.0207">
        <time>2021-10-17T14:05:50.615Z</time>
      </trkpt>
      <trkpt lat="49.32134" lon="-0.02059">
        <time>2021-10-17T14:05:55.493Z</time>
      </trkpt>
      <trkpt lat="49.32137" lon="-0.02048">
        <time>2021-10-17T14:06:00.496Z</time>
      </trkpt>
      <trkpt lat="49.32139" lon="-0.02037">
        <time>2021-10-17T14:06:05.498Z</time>
      </trkpt>
      <trkpt lat="49.32141" lon="-0.02025">
        <time>2021-10-17T14:06:10.491Z</time>
      </trkpt>
      <trkpt lat="49.32144" lon="-0.02014">
        <time>2021-10-17T14:06:15.493Z</time>
      </trkpt>
      <trkpt lat="49.32147" lon="-0.02003">
        <time>2021-10-17T14:06:20.476Z</time>
      </trkpt>
      <trkpt lat="49.3215" lon="-0.01991">
        <time>2021-10-17T14:06:25.485Z</time>
      </trkpt>
      <trkpt lat="49.32153" lon="-0.01983">
        <time>2021-10-17T14:06:29.494Z</time>
      </trkpt>
      <trkpt lat="49.32155" lon="-0.01974">
        <time>2021-10-17T14:06:33.496Z</time>
      </trkpt>
      <trkpt lat="49.3216" lon="-0.01968">
        <time>2021-10-17T14:06:38.495Z</time>
      </trkpt>
      <trkpt lat="49.32166" lon="-0.01971">
        <time>2021-10-17T14:06:43.494Z</time>
      </trkpt>
      <trkpt lat="49.32166" lon="-0.01975">
        <time>2021-10-17T14:06:48.484Z</time>
      </trkpt>
      <trkpt lat="49.32163" lon="-0.0198">
        <time>2021-10-17T14:06:52.492Z</time>
      </trkpt>
      <trkpt lat="49.32161" lon="-0.01983">
        <time>2021-10-17T14:06:57.496Z</time>
      </trkpt>
      <trkpt lat="49.32161" lon="-0.01983">
        <time>2021-10-17T14:07:01.508Z</time>
      </trkpt>
      <trkpt lat="49.32164" lon="-0.01973">
        <time>2021-10-17T14:07:06.484Z</time>
      </trkpt>
      <trkpt lat="49.32167" lon="-0.01966">
        <time>2021-10-17T14:07:10.485Z</time>
      </trkpt>
      <trkpt lat="49.3217" lon="-0.01956">
        <time>2021-10-17T14:07:15.485Z</time>
      </trkpt>
      <trkpt lat="49.32173" lon="-0.01946">
        <time>2021-10-17T14:07:20.486Z</time>
      </trkpt>
      <trkpt lat="49.32176" lon="-0.01935">
        <time>2021-10-17T14:07:25.489Z</time>
      </trkpt>
      <trkpt lat="49.3218" lon="-0.01926">
        <time>2021-10-17T14:07:30.476Z</time>
      </trkpt>
      <trkpt lat="49.32183" lon="-0.01918">
        <time>2021-10-17T14:07:34.489Z</time>
      </trkpt>
      <trkpt lat="49.32188" lon="-0.01908">
        <time>2021-10-17T14:07:39.477Z</time>
      </trkpt>
      <trkpt lat="49.32193" lon="-0.01897">
        <time>2021-10-17T14:07:44.486Z</time>
      </trkpt>
      <trkpt lat="49.32196" lon="-0.01887">
        <time>2021-10-17T14:07:49.478Z</time>
      </trkpt>
      <trkpt lat="49.322" lon="-0.01877">
        <time>2021-10-17T14:07:54.481Z</time>
      </trkpt>
      <trkpt lat="49.32204" lon="-0.01869">
        <time>2021-10-17T14:07:58.494Z</time>
      </trkpt>
      <trkpt lat="49.32207" lon="-0.01858">
        <time>2021-10-17T14:08:03.482Z</time>
      </trkpt>
      <trkpt lat="49.32211" lon="-0.01848">
        <time>2021-10-17T14:08:08.486Z</time>
      </trkpt>
      <trkpt lat="49.32215" lon="-0.01838">
        <time>2021-10-17T14:08:13.477Z</time>
      </trkpt>
      <trkpt lat="49.32217" lon="-0.01827">
        <time>2021-10-17T14:08:17.485Z</time>
      </trkpt>
      <trkpt lat="49.32218" lon="-0.01818">
        <time>2021-10-17T14:08:21.500Z</time>
      </trkpt>
      <trkpt lat="49.32217" lon="-0.01807">
        <time>2021-10-17T14:08:26.496Z</time>
      </trkpt>
      <trkpt lat="49.32213" lon="-0.01798">
        <time>2021-10-17T14:08:31.497Z</time>
      </trkpt>
      <trkpt lat="49.32212" lon="-0.01787">
        <time>2021-10-17T14:08:36.475Z</time>
      </trkpt>
      <trkpt lat="49.32207" lon="-0.01777">
        <time>2021-10-17T14:08:41.485Z</time>
      </trkpt>
      <trkpt lat="49.32204" lon="-0.01769">
        <time>2021-10-17T14:08:46.483Z</time>
      </trkpt>
      <trkpt lat="49.32202" lon="-0.01758">
        <time>2021-10-17T14:08:51.489Z</time>
      </trkpt>
      <trkpt lat="49.32202" lon="-0.01746">
        <time>2021-10-17T14:08:56.480Z</time>
      </trkpt>
      <trkpt lat="49.32204" lon="-0.01735">
        <time>2021-10-17T14:09:01.483Z</time>
      </trkpt>
      <trkpt lat="49.32206" lon="-0.01726">
        <time>2021-10-17T14:09:05.491Z</time>
      </trkpt>
      <trkpt lat="49.32207" lon="-0.01715">
        <time>2021-10-17T14:09:10.487Z</time>
      </trkpt>
      <trkpt lat="49.32207" lon="-0.01706">
        <time>2021-10-17T14:09:14.497Z</time>
      </trkpt>
      <trkpt lat="49.32207" lon="-0.01694">
        <time>2021-10-17T14:09:19.484Z</time>
      </trkpt>
      <trkpt lat="49.32209" lon="-0.01682">
        <time>2021-10-17T14:09:24.493Z</time>
      </trkpt>
      <trkpt lat="49.32211" lon="-0.01669">
        <time>2021-10-17T14:09:29.483Z</time>
      </trkpt>
      <trkpt lat="49.32213" lon="-0.01659">
        <time>2021-10-17T14:09:33.485Z</time>
      </trkpt>
      <trkpt lat="49.32214" lon="-0.0165">
        <time>2021-10-17T14:09:37.489Z</time>
      </trkpt>
      <trkpt lat="49.32215" lon="-0.0164">
        <time>2021-10-17T14:09:41.501Z</time>
      </trkpt>
      <trkpt lat="49.32218" lon="-0.01628">
        <time>2021-10-17T14:09:46.496Z</time>
      </trkpt>
      <trkpt lat="49.32221" lon="-0.01617">
        <time>2021-10-17T14:09:51.485Z</time>
      </trkpt>
      <trkpt lat="49.32224" lon="-0.01606">
        <time>2021-10-17T14:09:56.484Z</time>
      </trkpt>
      <trkpt lat="49.32226" lon="-0.01594">
        <time>2021-10-17T14:10:01.482Z</time>
      </trkpt>
      <trkpt lat="49.32228" lon="-0.01585">
        <time>2021-10-17T14:10:05.473Z</time>
      </trkpt>
      <trkpt lat="49.32231" lon="-0.01574">
        <time>2021-10-17T14:10:10.493Z</time>
      </trkpt>
      <trkpt lat="49.32234" lon="-0.01563">
        <time>2021-10-17T14:10:15.485Z</time>
      </trkpt>
      <trkpt lat="49.32237" lon="-0.01553">
        <time>2021-10-17T14:10:20.483Z</time>
      </trkpt>
      <trkpt lat="49.3224" lon="-0.01542">
        <time>2021-10-17T14:10:25.483Z</time>
      </trkpt>
      <trkpt lat="49.32243" lon="-0.01532">
        <time>2021-10-17T14:10:30.479Z</time>
      </trkpt>
      <trkpt lat="49.32248" lon="-0.01526">
        <time>2021-10-17T14:10:34.500Z</time>
      </trkpt>
      <trkpt lat="49.32254" lon="-0.01519">
        <time>2021-10-17T14:10:39.502Z</time>
      </trkpt>
      <trkpt lat="49.3226" lon="-0.0151">
        <time>2021-10-17T14:10:44.498Z</time>
      </trkpt>
      <trkpt lat="49.32264" lon="-0.01501">
        <time>2021-10-17T14:10:48.485Z</time>
      </trkpt>
      <trkpt lat="49.32268" lon="-0.01491">
        <time>2021-10-17T14:10:53.494Z</time>
      </trkpt>
      <trkpt lat="49.32271" lon="-0.01483">
        <time>2021-10-17T14:10:57.496Z</time>
      </trkpt>
      <trkpt lat="49.32274" lon="-0.01474">
        <time>2021-10-17T14:11:01.491Z</time>
      </trkpt>
      <trkpt lat="49.32279" lon="-0.01464">
        <time>2021-10-17T14:11:06.479Z</time>
      </trkpt>
      <trkpt lat="49.32283" lon="-0.01453">
        <time>2021-10-17T14:11:11.502Z</time>
      </trkpt>
      <trkpt lat="49.32284" lon="-0.01442">
        <time>2021-10-17T14:11:16.476Z</time>
      </trkpt>
      <trkpt lat="49.32287" lon="-0.01432">
        <time>2021-10-17T14:11:21.471Z</time>
      </trkpt>
      <trkpt lat="49.3229" lon="-0.01422">
        <time>2021-10-17T14:11:26.479Z</time>
      </trkpt>
      <trkpt lat="49.32294" lon="-0.01415">
        <time>2021-10-17T14:11:30.488Z</time>
      </trkpt>
      <trkpt lat="49.32297" lon="-0.01407">
        <time>2021-10-17T14:11:34.490Z</time>
      </trkpt>
      <trkpt lat="49.323" lon="-0.01396">
        <time>2021-10-17T14:11:39.489Z</time>
      </trkpt>
      <trkpt lat="49.32303" lon="-0.01388">
        <time>2021-10-17T14:11:43.485Z</time>
      </trkpt>
      <trkpt lat="49.32305" lon="-0.01377">
        <time>2021-10-17T14:11:48.486Z</time>
      </trkpt>
      <trkpt lat="49.32309" lon="-0.01367">
        <time>2021-10-17T14:11:53.482Z</time>
      </trkpt>
      <trkpt lat="49.32313" lon="-0.01356">
        <time>2021-10-17T14:11:58.481Z</time>
      </trkpt>
      <trkpt lat="49.32317" lon="-0.01345">
        <time>2021-10-17T14:12:03.495Z</time>
      </trkpt>
      <trkpt lat="49.3232" lon="-0.01336">
        <time>2021-10-17T14:12:07.496Z</time>
      </trkpt>
      <trkpt lat="49.32322" lon="-0.01325">
        <time>2021-10-17T14:12:12.475Z</time>
      </trkpt>
      <trkpt lat="49.32317" lon="-0.01316">
        <time>2021-10-17T14:12:17.471Z</time>
      </trkpt>
      <trkpt lat="49.32318" lon="-0.01311">
        <time>2021-10-17T14:12:22.470Z</time>
      </trkpt>
      <trkpt lat="49.32319" lon="-0.01311">
        <time>2021-10-17T14:12:26.479Z</time>
      </trkpt>
      <trkpt lat="49.3232" lon="-0.0131">
        <time>2021-10-17T14:12:31.469Z</time>
      </trkpt>
      <trkpt lat="49.32325" lon="-0.01302">
        <time>2021-10-17T14:12:36.487Z</time>
      </trkpt>
      <trkpt lat="49.32332" lon="-0.01295">
        <time>2021-10-17T14:12:41.483Z</time>
      </trkpt>
      <trkpt lat="49.32338" lon="-0.01286">
        <time>2021-10-17T14:12:46.481Z</time>
      </trkpt>
      <trkpt lat="49.32343" lon="-0.01279">
        <time>2021-10-17T14:12:50.587Z</time>
      </trkpt>
      <trkpt lat="49.32348" lon="-0.01271">
        <time>2021-10-17T14:12:55.490Z</time>
      </trkpt>
      <trkpt lat="49.3235" lon="-0.01261">
        <time>2021-10-17T14:12:59.487Z</time>
      </trkpt>
      <trkpt lat="49.32353" lon="-0.01251">
        <time>2021-10-17T14:13:04.488Z</time>
      </trkpt>
      <trkpt lat="49.32356" lon="-0.01241">
        <time>2021-10-17T14:13:09.471Z</time>
      </trkpt>
      <trkpt lat="49.32359" lon="-0.0123">
        <time>2021-10-17T14:13:14.489Z</time>
      </trkpt>
      <trkpt lat="49.32364" lon="-0.01219">
        <time>2021-10-17T14:13:19.481Z</time>
      </trkpt>
      <trkpt lat="49.32367" lon="-0.01208">
        <time>2021-10-17T14:13:24.493Z</time>
      </trkpt>
      <trkpt lat="49.32371" lon="-0.01197">
        <time>2021-10-17T14:13:29.491Z</time>
      </trkpt>
      <trkpt lat="49.32376" lon="-0.01187">
        <time>2021-10-17T14:13:34.468Z</time>
      </trkpt>
      <trkpt lat="49.32379" lon="-0.01178">
        <time>2021-10-17T14:13:38.485Z</time>
      </trkpt>
      <trkpt lat="49.3238" lon="-0.01167">
        <time>2021-10-17T14:13:43.484Z</time>
      </trkpt>
      <trkpt lat="49.32379" lon="-0.01161">
        <time>2021-10-17T14:13:48.476Z</time>
      </trkpt>
      <trkpt lat="49.32378" lon="-0.0116">
        <time>2021-10-17T14:13:53.480Z</time>
      </trkpt>
      <trkpt lat="49.32375" lon="-0.01165">
        <time>2021-10-17T14:13:57.499Z</time>
      </trkpt>
      <trkpt lat="49.3238" lon="-0.01157">
        <time>2021-10-17T14:14:02.483Z</time>
      </trkpt>
      <trkpt lat="49.32384" lon="-0.01151">
        <time>2021-10-17T14:14:06.486Z</time>
      </trkpt>
      <trkpt lat="49.32388" lon="-0.01142">
        <time>2021-10-17T14:14:11.478Z</time>
      </trkpt>
      <trkpt lat="49.32391" lon="-0.01134">
        <time>2021-10-17T14:14:16.483Z</time>
      </trkpt>
      <trkpt lat="49.32394" lon="-0.01124">
        <time>2021-10-17T14:14:21.483Z</time>
      </trkpt>
      <trkpt lat="49.32396" lon="-0.01117">
        <time>2021-10-17T14:14:25.481Z</time>
      </trkpt>
      <trkpt lat="49.32399" lon="-0.0111">
        <time>2021-10-17T14:14:29.487Z</time>
      </trkpt>
      <trkpt lat="49.32402" lon="-0.01101">
        <time>2021-10-17T14:14:34.483Z</time>
      </trkpt>
      <trkpt lat="49.32405" lon="-0.01093">
        <time>2021-10-17T14:14:38.486Z</time>
      </trkpt>
      <trkpt lat="49.32408" lon="-0.01084">
        <time>2021-10-17T14:14:43.481Z</time>
      </trkpt>
      <trkpt lat="49.32411" lon="-0.01078">
        <time>2021-10-17T14:14:47.477Z</time>
      </trkpt>
      <trkpt lat="49.32414" lon="-0.0107">
        <time>2021-10-17T14:14:51.483Z</time>
      </trkpt>
      <trkpt lat="49.32419" lon="-0.01062">
        <time>2021-10-17T14:14:56.487Z</time>
      </trkpt>
      <trkpt lat="49.32422" lon="-0.01055">
        <time>2021-10-17T14:15:00.489Z</time>
      </trkpt>
      <trkpt lat="49.32424" lon="-0.01046">
        <time>2021-10-17T14:15:04.493Z</time>
      </trkpt>
      <trkpt lat="49.32429" lon="-0.01035">
        <time>2021-10-17T14:15:09.481Z</time>
      </trkpt>
      <trkpt lat="49.32433" lon="-0.01025">
        <time>2021-10-17T14:15:14.474Z</time>
      </trkpt>
      <trkpt lat="49.32437" lon="-0.01016">
        <time>2021-10-17T14:15:19.481Z</time>
      </trkpt>
      <trkpt lat="49.32441" lon="-0.01007">
        <time>2021-10-17T14:15:24.477Z</time>
      </trkpt>
      <trkpt lat="49.32444" lon="-0.00999">
        <time>2021-10-17T14:15:28.479Z</time>
      </trkpt>
      <trkpt lat="49.32448" lon="-0.00989">
        <time>2021-10-17T14:15:33.473Z</time>
      </trkpt>
      <trkpt lat="49.32452" lon="-0.00978">
        <time>2021-10-17T14:15:38.479Z</time>
      </trkpt>
      <trkpt lat="49.32456" lon="-0.00969">
        <time>2021-10-17T14:15:43.477Z</time>
      </trkpt>
      <trkpt lat="49.3246" lon="-0.00959">
        <time>2021-10-17T14:15:48.481Z</time>
      </trkpt>
      <trkpt lat="49.32463" lon="-0.00951">
        <time>2021-10-17T14:15:52.494Z</time>
      </trkpt>
      <trkpt lat="49.32467" lon="-0.00941">
        <time>2021-10-17T14:15:57.477Z</time>
      </trkpt>
      <trkpt lat="49.32471" lon="-0.00933">
        <time>2021-10-17T14:16:02.479Z</time>
      </trkpt>
      <trkpt lat="49.32472" lon="-0.00924">
        <time>2021-10-17T14:16:06.485Z</time>
      </trkpt>
      <trkpt lat="49.32472" lon="-0.00913">
        <time>2021-10-17T14:16:11.473Z</time>
      </trkpt>
      <trkpt lat="49.32472" lon="-0.00904">
        <time>2021-10-17T14:16:15.495Z</time>
      </trkpt>
      <trkpt lat="49.32473" lon="-0.00894">
        <time>2021-10-17T14:16:20.474Z</time>
      </trkpt>
      <trkpt lat="49.32472" lon="-0.00885">
        <time>2021-10-17T14:16:24.470Z</time>
      </trkpt>
      <trkpt lat="49.32472" lon="-0.00877">
        <time>2021-10-17T14:16:28.478Z</time>
      </trkpt>
      <trkpt lat="49.32471" lon="-0.00868">
        <time>2021-10-17T14:16:32.482Z</time>
      </trkpt>
      <trkpt lat="49.32471" lon="-0.00857">
        <time>2021-10-17T14:16:37.479Z</time>
      </trkpt>
      <trkpt lat="49.3247" lon="-0.00848">
        <time>2021-10-17T14:16:41.483Z</time>
      </trkpt>
      <trkpt lat="49.3247" lon="-0.00837">
        <time>2021-10-17T14:16:46.477Z</time>
      </trkpt>
      <trkpt lat="49.32469" lon="-0.00829">
        <time>2021-10-17T14:16:50.477Z</time>
      </trkpt>
      <trkpt lat="49.32469" lon="-0.00821">
        <time>2021-10-17T14:16:54.481Z</time>
      </trkpt>
      <trkpt lat="49.32468" lon="-0.00812">
        <time>2021-10-17T14:16:59.478Z</time>
      </trkpt>
      <trkpt lat="49.32466" lon="-0.00805">
        <time>2021-10-17T14:17:03.483Z</time>
      </trkpt>
      <trkpt lat="49.32465" lon="-0.00796">
        <time>2021-10-17T14:17:08.472Z</time>
      </trkpt>
      <trkpt lat="49.32465" lon="-0.00785">
        <time>2021-10-17T14:17:13.485Z</time>
      </trkpt>
      <trkpt lat="49.32464" lon="-0.00777">
        <time>2021-10-17T14:17:17.493Z</time>
      </trkpt>
      <trkpt lat="49.32464" lon="-0.00768">
        <time>2021-10-17T14:17:21.475Z</time>
      </trkpt>
      <trkpt lat="49.32465" lon="-0.00757">
        <time>2021-10-17T14:17:26.485Z</time>
      </trkpt>
      <trkpt lat="49.32465" lon="-0.00745">
        <ele>1</ele>
        <time>2021-10-17T14:17:31.480Z</time>
      </trkpt>
      <trkpt lat="49.32466" lon="-0.00736">
        <ele>1</ele>
        <time>2021-10-17T14:17:35.482Z</time>
      </trkpt>
      <trkpt lat="49.32465" lon="-0.00727">
        <ele>1</ele>
        <time>2021-10-17T14:17:39.488Z</time>
      </trkpt>
      <trkpt lat="49.32465" lon="-0.00716">
        <ele>1</ele>
        <time>2021-10-17T14:17:44.489Z</time>
      </trkpt>
      <trkpt lat="49.32464" lon="-0.00705">
        <ele>1</ele>
        <time>2021-10-17T14:17:49.479Z</time>
      </trkpt>
      <trkpt lat="49.32464" lon="-0.00695">
        <ele>1</ele>
        <time>2021-10-17T14:17:54.495Z</time>
      </trkpt>
      <trkpt lat="49.32464" lon="-0.00685">
        <ele>1</ele>
        <time>2021-10-17T14:17:59.476Z</time>
      </trkpt>
      <trkpt lat="49.32468" lon="-0.00676">
        <ele>1</ele>
        <time>2021-10-17T14:18:04.470Z</time>
      </trkpt>
      <trkpt lat="49.32472" lon="-0.00671">
        <ele>1</ele>
        <time>2021-10-17T14:18:08.481Z</time>
      </trkpt>
      <trkpt lat="49.32475" lon="-0.00663">
        <ele>1</ele>
        <time>2021-10-17T14:18:13.488Z</time>
      </trkpt>
      <trkpt lat="49.32475" lon="-0.00656">
        <ele>1</ele>
        <time>2021-10-17T14:18:18.476Z</time>
      </trkpt>
      <trkpt lat="49.32472" lon="-0.00652">
        <ele>1</ele>
        <time>2021-10-17T14:18:23.471Z</time>
      </trkpt>
      <trkpt lat="49.32471" lon="-0.00645">
        <ele>1</ele>
        <time>2021-10-17T14:18:27.480Z</time>
      </trkpt>
      <trkpt lat="49.32472" lon="-0.00642">
        <ele>1</ele>
        <time>2021-10-17T14:18:31.504Z</time>
      </trkpt>
      <trkpt lat="49.32471" lon="-0.00638">
        <ele>1</ele>
        <time>2021-10-17T14:18:36.481Z</time>
      </trkpt>
      <trkpt lat="49.3247" lon="-0.0063">
        <ele>1</ele>
        <time>2021-10-17T14:18:41.481Z</time>
      </trkpt>
      <trkpt lat="49.32469" lon="-0.00624">
        <ele>1</ele>
        <time>2021-10-17T14:18:45.494Z</time>
      </trkpt>
      <trkpt lat="49.32468" lon="-0.00614">
        <ele>1</ele>
        <time>2021-10-17T14:18:50.484Z</time>
      </trkpt>
      <trkpt lat="49.32467" lon="-0.00607">
        <ele>1.2</ele>
        <time>2021-10-17T14:18:54.503Z</time>
      </trkpt>
      <trkpt lat="49.32466" lon="-0.00598">
        <ele>1.5</ele>
        <time>2021-10-17T14:18:59.470Z</time>
      </trkpt>
      <trkpt lat="49.32464" lon="-0.00591">
        <ele>1.7</ele>
        <time>2021-10-17T14:19:03.487Z</time>
      </trkpt>
      <trkpt lat="49.32462" lon="-0.00582">
        <ele>2</ele>
        <time>2021-10-17T14:19:08.478Z</time>
      </trkpt>
      <trkpt lat="49.3246" lon="-0.00574">
        <ele>2</ele>
        <time>2021-10-17T14:19:13.478Z</time>
      </trkpt>
      <trkpt lat="49.32456" lon="-0.00567">
        <ele>2.1</ele>
        <time>2021-10-17T14:19:17.469Z</time>
      </trkpt>
      <trkpt lat="49.32453" lon="-0.0056">
        <ele>2.3</ele>
        <time>2021-10-17T14:19:22.485Z</time>
      </trkpt>
      <trkpt lat="49.32449" lon="-0.00552">
        <ele>2.5</ele>
        <time>2021-10-17T14:19:27.484Z</time>
      </trkpt>
      <trkpt lat="49.32447" lon="-0.00544">
        <ele>2.4</ele>
        <time>2021-10-17T14:19:31.484Z</time>
      </trkpt>
      <trkpt lat="49.32447" lon="-0.00534">
        <ele>2.1</ele>
        <time>2021-10-17T14:19:36.488Z</time>
      </trkpt>
      <trkpt lat="49.32447" lon="-0.00524">
        <ele>2</ele>
        <time>2021-10-17T14:19:41.498Z</time>
      </trkpt>
      <trkpt lat="49.32448" lon="-0.00514">
        <ele>2.3</ele>
        <time>2021-10-17T14:19:46.479Z</time>
      </trkpt>
      <trkpt lat="49.3245" lon="-0.00504">
        <ele>2.5</ele>
        <time>2021-10-17T14:19:51.487Z</time>
      </trkpt>
      <trkpt lat="49.32454" lon="-0.00494">
        <ele>2.4</ele>
        <time>2021-10-17T14:19:56.489Z</time>
      </trkpt>
      <trkpt lat="49.32457" lon="-0.00484">
        <ele>2.4</ele>
        <time>2021-10-17T14:20:01.480Z</time>
      </trkpt>
      <trkpt lat="49.32459" lon="-0.00477">
        <ele>2.4</ele>
        <time>2021-10-17T14:20:05.489Z</time>
      </trkpt>
      <trkpt lat="49.32463" lon="-0.00467">
        <ele>2.4</ele>
        <time>2021-10-17T14:20:10.475Z</time>
      </trkpt>
      <trkpt lat="49.32466" lon="-0.0046">
        <ele>2.3</ele>
        <time>2021-10-17T14:20:14.478Z</time>
      </trkpt>
      <trkpt lat="49.32469" lon="-0.00451">
        <ele>2.2</ele>
        <time>2021-10-17T14:20:19.477Z</time>
      </trkpt>
      <trkpt lat="49.3247" lon="-0.00443">
        <ele>2.2</ele>
        <time>2021-10-17T14:20:23.483Z</time>
      </trkpt>
      <trkpt lat="49.32468" lon="-0.00434">
        <ele>2.6</ele>
        <time>2021-10-17T14:20:28.497Z</time>
      </trkpt>
      <trkpt lat="49.32466" lon="-0.00425">
        <ele>3</ele>
        <time>2021-10-17T14:20:33.481Z</time>
      </trkpt>
      <trkpt lat="49.32463" lon="-0.00418">
        <ele>3.3</ele>
        <time>2021-10-17T14:20:37.479Z</time>
      </trkpt>
      <trkpt lat="49.32462" lon="-0.00412">
        <ele>3.4</ele>
        <time>2021-10-17T14:20:41.488Z</time>
      </trkpt>
      <trkpt lat="49.3246" lon="-0.00405">
        <ele>3.6</ele>
        <time>2021-10-17T14:20:45.501Z</time>
      </trkpt>
      <trkpt lat="49.32457" lon="-0.00398">
        <ele>7</ele>
        <time>2021-10-17T14:20:50.477Z</time>
      </trkpt>
      <trkpt lat="49.32456" lon="-0.00391">
        <ele>7</ele>
        <time>2021-10-17T14:20:54.487Z</time>
      </trkpt>
      <trkpt lat="49.32458" lon="-0.0038">
        <ele>7</ele>
        <time>2021-10-17T14:34:47.478Z</time>
      </trkpt>
      <trkpt lat="49.32456" lon="-0.00378">
        <ele>7</ele>
        <time>2021-10-17T14:34:52.475Z</time>
      </trkpt>
      <trkpt lat="49.32455" lon="-0.00377">
        <ele>7</ele>
        <time>2021-10-17T14:34:56.481Z</time>
      </trkpt>
      <trkpt lat="49.32452" lon="-0.00374">
        <ele>8</ele>
        <time>2021-10-17T14:35:01.485Z</time>
      </trkpt>
      <trkpt lat="49.32449" lon="-0.00371">
        <ele>8</ele>
        <time>2021-10-17T14:35:06.483Z</time>
      </trkpt>
      <trkpt lat="49.32445" lon="-0.00366">
        <ele>8</ele>
        <time>2021-10-17T14:35:16.486Z</time>
      </trkpt>
      <trkpt lat="49.32448" lon="-0.00361">
        <ele>8</ele>
        <time>2021-10-17T14:35:21.474Z</time>
      </trkpt>
      <trkpt lat="49.3245" lon="-0.00358">
        <ele>8</ele>
        <time>2021-10-17T14:35:25.492Z</time>
      </trkpt>
      <trkpt lat="49.3245" lon="-0.00358">
        <ele>8</ele>
        <time>2021-10-17T14:35:30.481Z</time>
      </trkpt>
      <trkpt lat="49.32451" lon="-0.00355">
        <ele>8</ele>
        <time>2021-10-17T14:35:35.475Z</time>
      </trkpt>
      <trkpt lat="49.32453" lon="-0.0035">
        <ele>8</ele>
        <time>2021-10-17T14:35:39.478Z</time>
      </trkpt>
      <trkpt lat="49.32454" lon="-0.00344">
        <ele>9</ele>
        <time>2021-10-17T14:35:44.483Z</time>
      </trkpt>
      <trkpt lat="49.32457" lon="-0.00339">
        <ele>9</ele>
        <time>2021-10-17T14:35:49.486Z</time>
      </trkpt>
      <trkpt lat="49.32461" lon="-0.00333">
        <ele>5.8</ele>
        <time>2021-10-17T14:35:54.479Z</time>
      </trkpt>
      <trkpt lat="49.32462" lon="-0.00328">
        <ele>5.6</ele>
        <time>2021-10-17T14:35:58.498Z</time>
      </trkpt>
      <trkpt lat="49.32465" lon="-0.00322">
        <ele>5.4</ele>
        <time>2021-10-17T14:36:03.495Z</time>
      </trkpt>
      <trkpt lat="49.32467" lon="-0.00317">
        <ele>6</ele>
        <time>2021-10-17T14:36:08.487Z</time>
      </trkpt>
      <trkpt lat="49.32465" lon="-0.00314">
        <ele>6</ele>
        <time>2021-10-17T14:36:13.494Z</time>
      </trkpt>
      <trkpt lat="49.32464" lon="-0.00307">
        <ele>6</ele>
        <time>2021-10-17T14:36:18.488Z</time>
      </trkpt>
      <trkpt lat="49.32467" lon="-0.00302">
        <ele>6</ele>
        <time>2021-10-17T14:36:23.486Z</time>
      </trkpt>
      <trkpt lat="49.32468" lon="-0.003">
        <ele>6</ele>
        <time>2021-10-17T14:36:27.491Z</time>
      </trkpt>
      <trkpt lat="49.32471" lon="-0.00294">
        <ele>6</ele>
        <time>2021-10-17T14:36:32.499Z</time>
      </trkpt>
      <trkpt lat="49.32474" lon="-0.00289">
        <ele>6</ele>
        <time>2021-10-17T14:36:37.481Z</time>
      </trkpt>
      <trkpt lat="49.32477" lon="-0.00283">
        <ele>6</ele>
        <time>2021-10-17T14:36:41.484Z</time>
      </trkpt>
      <trkpt lat="49.32478" lon="-0.00277">
        <ele>6</ele>
        <time>2021-10-17T14:36:45.488Z</time>
      </trkpt>
      <trkpt lat="49.3248" lon="-0.00271">
        <ele>6</ele>
        <time>2021-10-17T14:36:50.497Z</time>
      </trkpt>
      <trkpt lat="49.32482" lon="-0.00266">
        <ele>6</ele>
        <time>2021-10-17T14:36:55.484Z</time>
      </trkpt>
      <trkpt lat="49.32484" lon="-0.0026">
        <ele>6</ele>
        <time>2021-10-17T14:37:00.484Z</time>
      </trkpt>
      <trkpt lat="49.32486" lon="-0.00254">
        <ele>6</ele>
        <time>2021-10-17T14:37:04.483Z</time>
      </trkpt>
      <trkpt lat="49.32488" lon="-0.00247">
        <ele>5</ele>
        <time>2021-10-17T14:37:09.474Z</time>
      </trkpt>
      <trkpt lat="49.32489" lon="-0.00243">
        <ele>5</ele>
        <time>2021-10-17T14:37:13.486Z</time>
      </trkpt>
      <trkpt lat="49.32491" lon="-0.00238">
        <ele>5</ele>
        <time>2021-10-17T14:37:17.490Z</time>
      </trkpt>
      <trkpt lat="49.32494" lon="-0.00232">
        <ele>5</ele>
        <time>2021-10-17T14:37:22.491Z</time>
      </trkpt>
      <trkpt lat="49.32496" lon="-0.00227">
        <ele>5</ele>
        <time>2021-10-17T14:37:27.497Z</time>
      </trkpt>
      <trkpt lat="49.32499" lon="-0.00221">
        <ele>5</ele>
        <time>2021-10-17T14:37:32.495Z</time>
      </trkpt>
      <trkpt lat="49.325" lon="-0.00217">
        <ele>5</ele>
        <time>2021-10-17T14:37:36.493Z</time>
      </trkpt>
      <trkpt lat="49.32503" lon="-0.00211">
        <ele>5</ele>
        <time>2021-10-17T14:37:41.491Z</time>
      </trkpt>
      <trkpt lat="49.32505" lon="-0.00204">
        <ele>6</ele>
        <time>2021-10-17T14:37:46.468Z</time>
      </trkpt>
      <trkpt lat="49.32507" lon="-0.00198">
        <ele>6</ele>
        <time>2021-10-17T14:37:50.486Z</time>
      </trkpt>
      <trkpt lat="49.32508" lon="-0.00193">
        <ele>6</ele>
        <time>2021-10-17T14:37:54.483Z</time>
      </trkpt>
      <trkpt lat="49.32511" lon="-0.00186">
        <ele>6</ele>
        <time>2021-10-17T14:37:59.485Z</time>
      </trkpt>
      <trkpt lat="49.32511" lon="-0.00183">
        <ele>6</ele>
        <time>2021-10-17T14:38:04.471Z</time>
      </trkpt>
      <trkpt lat="49.32511" lon="-0.00182">
        <ele>6</ele>
        <time>2021-10-17T14:38:13.476Z</time>
      </trkpt>
      <trkpt lat="49.32511" lon="-0.00181">
        <ele>6</ele>
        <time>2021-10-17T14:38:18.483Z</time>
      </trkpt>
      <trkpt lat="49.3251" lon="-0.00179">
        <ele>7</ele>
        <time>2021-10-17T14:38:23.492Z</time>
      </trkpt>
      <trkpt lat="49.32509" lon="-0.00175">
        <ele>7</ele>
        <time>2021-10-17T14:38:28.485Z</time>
      </trkpt>
      <trkpt lat="49.32505" lon="-0.0017">
        <ele>7</ele>
        <time>2021-10-17T14:38:33.475Z</time>
      </trkpt>
      <trkpt lat="49.32505" lon="-0.00164">
        <ele>7</ele>
        <time>2021-10-17T14:38:37.482Z</time>
      </trkpt>
      <trkpt lat="49.32506" lon="-0.00157">
        <ele>7</ele>
        <time>2021-10-17T14:38:41.485Z</time>
      </trkpt>
      <trkpt lat="49.32508" lon="-0.00148">
        <ele>8</ele>
        <time>2021-10-17T14:38:46.497Z</time>
      </trkpt>
      <trkpt lat="49.32507" lon="-0.0014">
        <ele>8</ele>
        <time>2021-10-17T14:38:51.477Z</time>
      </trkpt>
      <trkpt lat="49.32504" lon="-0.00133">
        <ele>8</ele>
        <time>2021-10-17T14:38:56.486Z</time>
      </trkpt>
      <trkpt lat="49.325" lon="-0.00129">
        <ele>8</ele>
        <time>2021-10-17T14:39:01.495Z</time>
      </trkpt>
      <trkpt lat="49.32495" lon="-0.00129">
        <ele>8</ele>
        <time>2021-10-17T14:39:06.479Z</time>
      </trkpt>
      <trkpt lat="49.32491" lon="-0.00131">
        <ele>8</ele>
        <time>2021-10-17T14:39:11.479Z</time>
      </trkpt>
      <trkpt lat="49.32487" lon="-0.00129">
        <ele>8</ele>
        <time>2021-10-17T14:39:15.497Z</time>
      </trkpt>
      <trkpt lat="49.32482" lon="-0.00126">
        <ele>7</ele>
        <time>2021-10-17T14:39:20.487Z</time>
      </trkpt>
      <trkpt lat="49.32477" lon="-0.0013">
        <ele>7</ele>
        <time>2021-10-17T14:39:25.489Z</time>
      </trkpt>
      <trkpt lat="49.32471" lon="-0.0013">
        <ele>7</ele>
        <time>2021-10-17T14:39:30.472Z</time>
      </trkpt>
      <trkpt lat="49.32467" lon="-0.00129">
        <ele>7</ele>
        <time>2021-10-17T14:39:35.473Z</time>
      </trkpt>
      <trkpt lat="49.32461" lon="-0.00129">
        <ele>7</ele>
        <time>2021-10-17T14:39:40.487Z</time>
      </trkpt>
      <trkpt lat="49.32456" lon="-0.00125">
        <ele>5</ele>
        <time>2021-10-17T14:39:45.483Z</time>
      </trkpt>
      <trkpt lat="49.32452" lon="-0.00121">
        <ele>5</ele>
        <time>2021-10-17T14:39:49.492Z</time>
      </trkpt>
      <trkpt lat="49.32447" lon="-0.00117">
        <ele>5</ele>
        <time>2021-10-17T14:39:54.484Z</time>
      </trkpt>
      <trkpt lat="49.32443" lon="-0.00119">
        <ele>5</ele>
        <time>2021-10-17T14:39:59.478Z</time>
      </trkpt>
      <trkpt lat="49.3244" lon="-0.00123">
        <ele>5</ele>
        <time>2021-10-17T14:40:03.492Z</time>
      </trkpt>
      <trkpt lat="49.32435" lon="-0.0013">
        <ele>5</ele>
        <time>2021-10-17T14:40:08.488Z</time>
      </trkpt>
      <trkpt lat="49.32432" lon="-0.00136">
        <ele>5</ele>
        <time>2021-10-17T14:40:13.474Z</time>
      </trkpt>
      <trkpt lat="49.32428" lon="-0.0014">
        <ele>4</ele>
        <time>2021-10-17T14:40:17.482Z</time>
      </trkpt>
      <trkpt lat="49.32424" lon="-0.00146">
        <ele>4</ele>
        <time>2021-10-17T14:40:22.478Z</time>
      </trkpt>
      <trkpt lat="49.3242" lon="-0.0015">
        <ele>4</ele>
        <time>2021-10-17T14:40:27.486Z</time>
      </trkpt>
      <trkpt lat="49.32416" lon="-0.00154">
        <ele>5</ele>
        <time>2021-10-17T14:40:32.476Z</time>
      </trkpt>
      <trkpt lat="49.32416" lon="-0.00162">
        <ele>5</ele>
        <time>2021-10-17T14:40:37.471Z</time>
      </trkpt>
      <trkpt lat="49.32416" lon="-0.00166">
        <ele>5</ele>
        <time>2021-10-17T14:40:41.484Z</time>
      </trkpt>
      <trkpt lat="49.32417" lon="-0.00172">
        <ele>5</ele>
        <time>2021-10-17T14:40:46.480Z</time>
      </trkpt>
    </trkseg>
  </trk>
</gpx>